<?xml version="1.0" encoding="UTF-8" standalone="no" ?>
<gpx xmlns="http://www.topografix.com/GPX/1/1" xmlns:xsi="http://www.w3.org/2001/XMLSchema-instance" xsi:schemaLocation="http://www.topografix.com/GPX/1/1 http://www.topografix.com/GPX/1/1/gpx.xsd" version="1.1" creator="VisuGPX - https://www.visugpx.com">
  <metadata>
    <name>6 mai 2012 - 11km/55min</name>
    <desc><![CDATA[Petite course de fin de week end.]]></desc>
  </metadata>
  <trk>
    <name><![CDATA[06-MAI-12 05:43:42 PM]]></name>
    <trkseg>
      <trkpt lat="49.03214" lon="1.16104">
        <ele>67.91</ele>
        <time>2012-05-06T16:38:49Z</time>
      </trkpt>
      <trkpt lat="49.03214" lon="1.16103">
        <ele>65.03</ele>
        <time>2012-05-06T16:38:50Z</time>
      </trkpt>
      <trkpt lat="49.03217" lon="1.16103">
        <ele>64.07</ele>
        <time>2012-05-06T16:38:52Z</time>
      </trkpt>
      <trkpt lat="49.03243" lon="1.16113">
        <ele>56.37</ele>
        <time>2012-05-06T16:39:04Z</time>
      </trkpt>
      <trkpt lat="49.03244" lon="1.16114">
        <ele>64.55</ele>
        <time>2012-05-06T16:39:05Z</time>
      </trkpt>
      <trkpt lat="49.0325" lon="1.16116">
        <ele>61.18</ele>
        <time>2012-05-06T16:39:10Z</time>
      </trkpt>
      <trkpt lat="49.03252" lon="1.16116">
        <ele>63.1</ele>
        <time>2012-05-06T16:39:11Z</time>
      </trkpt>
      <trkpt lat="49.03268" lon="1.16116">
        <ele>63.1</ele>
        <time>2012-05-06T16:39:22Z</time>
      </trkpt>
      <trkpt lat="49.03266" lon="1.16094">
        <ele>62.62</ele>
        <time>2012-05-06T16:39:28Z</time>
      </trkpt>
      <trkpt lat="49.03265" lon="1.16087">
        <ele>62.14</ele>
        <time>2012-05-06T16:39:30Z</time>
      </trkpt>
      <trkpt lat="49.03275" lon="1.16067">
        <ele>60.22</ele>
        <time>2012-05-06T16:39:37Z</time>
      </trkpt>
      <trkpt lat="49.03272" lon="1.16061">
        <ele>59.26</ele>
        <time>2012-05-06T16:39:38Z</time>
      </trkpt>
      <trkpt lat="49.0327" lon="1.16055">
        <ele>58.78</ele>
        <time>2012-05-06T16:39:39Z</time>
      </trkpt>
      <trkpt lat="49.03268" lon="1.16051">
        <ele>58.3</ele>
        <time>2012-05-06T16:39:40Z</time>
      </trkpt>
      <trkpt lat="49.03266" lon="1.16046">
        <ele>58.3</ele>
        <time>2012-05-06T16:39:41Z</time>
      </trkpt>
      <trkpt lat="49.03255" lon="1.16019">
        <ele>54.93</ele>
        <time>2012-05-06T16:39:48Z</time>
      </trkpt>
      <trkpt lat="49.03247" lon="1.16003">
        <ele>53.97</ele>
        <time>2012-05-06T16:39:52Z</time>
      </trkpt>
      <trkpt lat="49.03246" lon="1.16">
        <ele>53.97</ele>
        <time>2012-05-06T16:39:53Z</time>
      </trkpt>
      <trkpt lat="49.03245" lon="1.15998">
        <ele>53.97</ele>
        <time>2012-05-06T16:39:54Z</time>
      </trkpt>
      <trkpt lat="49.03243" lon="1.15994">
        <ele>52.53</ele>
        <time>2012-05-06T16:39:55Z</time>
      </trkpt>
      <trkpt lat="49.03241" lon="1.1599">
        <ele>53.01</ele>
        <time>2012-05-06T16:39:56Z</time>
      </trkpt>
      <trkpt lat="49.03238" lon="1.15986">
        <ele>52.53</ele>
        <time>2012-05-06T16:39:57Z</time>
      </trkpt>
      <trkpt lat="49.03235" lon="1.15982">
        <ele>52.53</ele>
        <time>2012-05-06T16:39:58Z</time>
      </trkpt>
      <trkpt lat="49.03232" lon="1.15978">
        <ele>52.53</ele>
        <time>2012-05-06T16:39:59Z</time>
      </trkpt>
      <trkpt lat="49.03205" lon="1.15938">
        <ele>50.61</ele>
        <time>2012-05-06T16:40:10Z</time>
      </trkpt>
      <trkpt lat="49.03188" lon="1.15913">
        <ele>48.68</ele>
        <time>2012-05-06T16:40:18Z</time>
      </trkpt>
      <trkpt lat="49.03186" lon="1.15912">
        <ele>48.68</ele>
        <time>2012-05-06T16:40:19Z</time>
      </trkpt>
      <trkpt lat="49.03184" lon="1.15912">
        <ele>48.2</ele>
        <time>2012-05-06T16:40:20Z</time>
      </trkpt>
      <trkpt lat="49.03182" lon="1.15914">
        <ele>48.2</ele>
        <time>2012-05-06T16:40:21Z</time>
      </trkpt>
      <trkpt lat="49.0318" lon="1.15918">
        <ele>48.2</ele>
        <time>2012-05-06T16:40:22Z</time>
      </trkpt>
      <trkpt lat="49.03178" lon="1.15922">
        <ele>48.2</ele>
        <time>2012-05-06T16:40:23Z</time>
      </trkpt>
      <trkpt lat="49.03175" lon="1.15925">
        <ele>48.68</ele>
        <time>2012-05-06T16:40:24Z</time>
      </trkpt>
      <trkpt lat="49.03173" lon="1.15928">
        <ele>48.68</ele>
        <time>2012-05-06T16:40:25Z</time>
      </trkpt>
      <trkpt lat="49.0317" lon="1.15931">
        <ele>48.68</ele>
        <time>2012-05-06T16:40:26Z</time>
      </trkpt>
      <trkpt lat="49.03167" lon="1.15934">
        <ele>48.68</ele>
        <time>2012-05-06T16:40:27Z</time>
      </trkpt>
      <trkpt lat="49.03165" lon="1.15938">
        <ele>48.68</ele>
        <time>2012-05-06T16:40:28Z</time>
      </trkpt>
      <trkpt lat="49.03162" lon="1.15941">
        <ele>47.72</ele>
        <time>2012-05-06T16:40:29Z</time>
      </trkpt>
      <trkpt lat="49.03159" lon="1.15944">
        <ele>47.72</ele>
        <time>2012-05-06T16:40:30Z</time>
      </trkpt>
      <trkpt lat="49.03157" lon="1.15946">
        <ele>48.2</ele>
        <time>2012-05-06T16:40:31Z</time>
      </trkpt>
      <trkpt lat="49.03154" lon="1.15947">
        <ele>47.72</ele>
        <time>2012-05-06T16:40:32Z</time>
      </trkpt>
      <trkpt lat="49.03151" lon="1.15949">
        <ele>48.2</ele>
        <time>2012-05-06T16:40:33Z</time>
      </trkpt>
      <trkpt lat="49.03147" lon="1.15951">
        <ele>48.2</ele>
        <time>2012-05-06T16:40:34Z</time>
      </trkpt>
      <trkpt lat="49.03121" lon="1.15989">
        <ele>46.76</ele>
        <time>2012-05-06T16:40:45Z</time>
      </trkpt>
      <trkpt lat="49.03101" lon="1.16023">
        <ele>46.28</ele>
        <time>2012-05-06T16:40:54Z</time>
      </trkpt>
      <trkpt lat="49.0308" lon="1.16061">
        <ele>44.84</ele>
        <time>2012-05-06T16:41:05Z</time>
      </trkpt>
      <trkpt lat="49.03057" lon="1.16094">
        <ele>43.4</ele>
        <time>2012-05-06T16:41:16Z</time>
      </trkpt>
      <trkpt lat="49.03048" lon="1.16116">
        <ele>42.92</ele>
        <time>2012-05-06T16:41:27Z</time>
      </trkpt>
      <trkpt lat="49.03046" lon="1.16128">
        <ele>43.4</ele>
        <time>2012-05-06T16:41:30Z</time>
      </trkpt>
      <trkpt lat="49.03028" lon="1.16162">
        <ele>42.92</ele>
        <time>2012-05-06T16:41:40Z</time>
      </trkpt>
      <trkpt lat="49.03011" lon="1.16198">
        <ele>44.36</ele>
        <time>2012-05-06T16:41:51Z</time>
      </trkpt>
      <trkpt lat="49.02986" lon="1.16256">
        <ele>45.8</ele>
        <time>2012-05-06T16:42:04Z</time>
      </trkpt>
      <trkpt lat="49.02969" lon="1.16302">
        <ele>47.24</ele>
        <time>2012-05-06T16:42:16Z</time>
      </trkpt>
      <trkpt lat="49.02963" lon="1.16355">
        <ele>49.16</ele>
        <time>2012-05-06T16:42:27Z</time>
      </trkpt>
      <trkpt lat="49.02953" lon="1.16401">
        <ele>50.61</ele>
        <time>2012-05-06T16:42:38Z</time>
      </trkpt>
      <trkpt lat="49.02937" lon="1.16433">
        <ele>51.57</ele>
        <time>2012-05-06T16:42:47Z</time>
      </trkpt>
      <trkpt lat="49.02926" lon="1.16477">
        <ele>53.01</ele>
        <time>2012-05-06T16:42:57Z</time>
      </trkpt>
      <trkpt lat="49.02918" lon="1.16518">
        <ele>54.93</ele>
        <time>2012-05-06T16:43:07Z</time>
      </trkpt>
      <trkpt lat="49.02905" lon="1.16576">
        <ele>56.37</ele>
        <time>2012-05-06T16:43:21Z</time>
      </trkpt>
      <trkpt lat="49.02889" lon="1.16612">
        <ele>57.34</ele>
        <time>2012-05-06T16:43:31Z</time>
      </trkpt>
      <trkpt lat="49.02863" lon="1.16656">
        <ele>59.26</ele>
        <time>2012-05-06T16:43:44Z</time>
      </trkpt>
      <trkpt lat="49.02849" lon="1.16682">
        <ele>59.74</ele>
        <time>2012-05-06T16:43:54Z</time>
      </trkpt>
      <trkpt lat="49.02829" lon="1.16708">
        <ele>60.22</ele>
        <time>2012-05-06T16:44:05Z</time>
      </trkpt>
      <trkpt lat="49.02806" lon="1.16718">
        <ele>62.14</ele>
        <time>2012-05-06T16:44:16Z</time>
      </trkpt>
      <trkpt lat="49.02771" lon="1.16712">
        <ele>63.1</ele>
        <time>2012-05-06T16:44:27Z</time>
      </trkpt>
      <trkpt lat="49.02753" lon="1.16704">
        <ele>63.58</ele>
        <time>2012-05-06T16:44:33Z</time>
      </trkpt>
      <trkpt lat="49.02752" lon="1.16703">
        <ele>63.1</ele>
        <time>2012-05-06T16:44:34Z</time>
      </trkpt>
      <trkpt lat="49.02731" lon="1.16693">
        <ele>65.03</ele>
        <time>2012-05-06T16:44:41Z</time>
      </trkpt>
      <trkpt lat="49.02719" lon="1.16689">
        <ele>65.03</ele>
        <time>2012-05-06T16:44:45Z</time>
      </trkpt>
      <trkpt lat="49.02686" lon="1.16675">
        <ele>65.99</ele>
        <time>2012-05-06T16:44:57Z</time>
      </trkpt>
      <trkpt lat="49.02655" lon="1.16673">
        <ele>67.43</ele>
        <time>2012-05-06T16:45:08Z</time>
      </trkpt>
      <trkpt lat="49.02622" lon="1.16679">
        <ele>67.91</ele>
        <time>2012-05-06T16:45:20Z</time>
      </trkpt>
      <trkpt lat="49.02593" lon="1.16694">
        <ele>69.35</ele>
        <time>2012-05-06T16:45:32Z</time>
      </trkpt>
      <trkpt lat="49.02556" lon="1.16716">
        <ele>70.79</ele>
        <time>2012-05-06T16:45:45Z</time>
      </trkpt>
      <trkpt lat="49.02521" lon="1.16735">
        <ele>71.27</ele>
        <time>2012-05-06T16:45:57Z</time>
      </trkpt>
      <trkpt lat="49.02493" lon="1.16756">
        <ele>71.76</ele>
        <time>2012-05-06T16:46:07Z</time>
      </trkpt>
      <trkpt lat="49.02468" lon="1.16782">
        <ele>72.72</ele>
        <time>2012-05-06T16:46:17Z</time>
      </trkpt>
      <trkpt lat="49.0244" lon="1.16811">
        <ele>74.16</ele>
        <time>2012-05-06T16:46:28Z</time>
      </trkpt>
      <trkpt lat="49.02417" lon="1.16843">
        <ele>75.12</ele>
        <time>2012-05-06T16:46:39Z</time>
      </trkpt>
      <trkpt lat="49.02388" lon="1.16873">
        <ele>76.08</ele>
        <time>2012-05-06T16:46:52Z</time>
      </trkpt>
      <trkpt lat="49.02364" lon="1.169">
        <ele>77.52</ele>
        <time>2012-05-06T16:47:03Z</time>
      </trkpt>
      <trkpt lat="49.02342" lon="1.16929">
        <ele>78.97</ele>
        <time>2012-05-06T16:47:15Z</time>
      </trkpt>
      <trkpt lat="49.02332" lon="1.16938">
        <ele>79.93</ele>
        <time>2012-05-06T16:47:20Z</time>
      </trkpt>
      <trkpt lat="49.02314" lon="1.16939">
        <ele>80.89</ele>
        <time>2012-05-06T16:47:28Z</time>
      </trkpt>
      <trkpt lat="49.02311" lon="1.16941">
        <ele>80.41</ele>
        <time>2012-05-06T16:47:29Z</time>
      </trkpt>
      <trkpt lat="49.02308" lon="1.16944">
        <ele>80.89</ele>
        <time>2012-05-06T16:47:30Z</time>
      </trkpt>
      <trkpt lat="49.02306" lon="1.16946">
        <ele>80.89</ele>
        <time>2012-05-06T16:47:31Z</time>
      </trkpt>
      <trkpt lat="49.02304" lon="1.1695">
        <ele>80.89</ele>
        <time>2012-05-06T16:47:32Z</time>
      </trkpt>
      <trkpt lat="49.02301" lon="1.16953">
        <ele>80.89</ele>
        <time>2012-05-06T16:47:33Z</time>
      </trkpt>
      <trkpt lat="49.02281" lon="1.1697">
        <ele>83.29</ele>
        <time>2012-05-06T16:47:42Z</time>
      </trkpt>
      <trkpt lat="49.02259" lon="1.1699">
        <ele>85.69</ele>
        <time>2012-05-06T16:47:51Z</time>
      </trkpt>
      <trkpt lat="49.02232" lon="1.17009">
        <ele>87.62</ele>
        <time>2012-05-06T16:48:02Z</time>
      </trkpt>
      <trkpt lat="49.02209" lon="1.17028">
        <ele>89.54</ele>
        <time>2012-05-06T16:48:12Z</time>
      </trkpt>
      <trkpt lat="49.02185" lon="1.17043">
        <ele>90.98</ele>
        <time>2012-05-06T16:48:22Z</time>
      </trkpt>
      <trkpt lat="49.02163" lon="1.17057">
        <ele>91.46</ele>
        <time>2012-05-06T16:48:31Z</time>
      </trkpt>
      <trkpt lat="49.02143" lon="1.17076">
        <ele>93.87</ele>
        <time>2012-05-06T16:48:40Z</time>
      </trkpt>
      <trkpt lat="49.02121" lon="1.171">
        <ele>94.83</ele>
        <time>2012-05-06T16:48:51Z</time>
      </trkpt>
      <trkpt lat="49.02088" lon="1.17125">
        <ele>95.79</ele>
        <time>2012-05-06T16:49:04Z</time>
      </trkpt>
      <trkpt lat="49.02065" lon="1.1714">
        <ele>96.27</ele>
        <time>2012-05-06T16:49:14Z</time>
      </trkpt>
      <trkpt lat="49.02024" lon="1.17154">
        <ele>98.67</ele>
        <time>2012-05-06T16:49:26Z</time>
      </trkpt>
      <trkpt lat="49.0202" lon="1.17154">
        <ele>98.67</ele>
        <time>2012-05-06T16:49:27Z</time>
      </trkpt>
      <trkpt lat="49.02002" lon="1.17162">
        <ele>98.67</ele>
        <time>2012-05-06T16:49:39Z</time>
      </trkpt>
      <trkpt lat="49.0198" lon="1.17168">
        <ele>98.19</ele>
        <time>2012-05-06T16:49:53Z</time>
      </trkpt>
      <trkpt lat="49.01954" lon="1.17166">
        <ele>100.11</ele>
        <time>2012-05-06T16:50:04Z</time>
      </trkpt>
      <trkpt lat="49.01925" lon="1.17161">
        <ele>100.6</ele>
        <time>2012-05-06T16:50:15Z</time>
      </trkpt>
      <trkpt lat="49.01895" lon="1.17162">
        <ele>101.08</ele>
        <time>2012-05-06T16:50:27Z</time>
      </trkpt>
      <trkpt lat="49.01869" lon="1.17157">
        <ele>102.52</ele>
        <time>2012-05-06T16:50:38Z</time>
      </trkpt>
      <trkpt lat="49.01841" lon="1.17155">
        <ele>103</ele>
        <time>2012-05-06T16:50:48Z</time>
      </trkpt>
      <trkpt lat="49.0182" lon="1.17152">
        <ele>103.96</ele>
        <time>2012-05-06T16:50:57Z</time>
      </trkpt>
      <trkpt lat="49.01782" lon="1.17138">
        <ele>105.4</ele>
        <time>2012-05-06T16:51:10Z</time>
      </trkpt>
      <trkpt lat="49.01748" lon="1.17123">
        <ele>106.84</ele>
        <time>2012-05-06T16:51:22Z</time>
      </trkpt>
      <trkpt lat="49.01719" lon="1.17099">
        <ele>107.32</ele>
        <time>2012-05-06T16:51:34Z</time>
      </trkpt>
      <trkpt lat="49.01687" lon="1.17084">
        <ele>107.32</ele>
        <time>2012-05-06T16:51:46Z</time>
      </trkpt>
      <trkpt lat="49.01669" lon="1.1707">
        <ele>107.32</ele>
        <time>2012-05-06T16:51:53Z</time>
      </trkpt>
      <trkpt lat="49.01666" lon="1.17069">
        <ele>107.32</ele>
        <time>2012-05-06T16:51:54Z</time>
      </trkpt>
      <trkpt lat="49.01663" lon="1.17068">
        <ele>107.32</ele>
        <time>2012-05-06T16:51:55Z</time>
      </trkpt>
      <trkpt lat="49.01631" lon="1.17055">
        <ele>107.32</ele>
        <time>2012-05-06T16:52:07Z</time>
      </trkpt>
      <trkpt lat="49.01603" lon="1.17042">
        <ele>106.84</ele>
        <time>2012-05-06T16:52:18Z</time>
      </trkpt>
      <trkpt lat="49.0157" lon="1.17022">
        <ele>106.84</ele>
        <time>2012-05-06T16:52:30Z</time>
      </trkpt>
      <trkpt lat="49.01539" lon="1.17001">
        <ele>107.81</ele>
        <time>2012-05-06T16:52:42Z</time>
      </trkpt>
      <trkpt lat="49.01514" lon="1.16987">
        <ele>109.73</ele>
        <time>2012-05-06T16:52:51Z</time>
      </trkpt>
      <trkpt lat="49.01487" lon="1.16972">
        <ele>109.73</ele>
        <time>2012-05-06T16:53:01Z</time>
      </trkpt>
      <trkpt lat="49.01454" lon="1.16956">
        <ele>110.69</ele>
        <time>2012-05-06T16:53:12Z</time>
      </trkpt>
      <trkpt lat="49.0142" lon="1.16937">
        <ele>111.65</ele>
        <time>2012-05-06T16:53:24Z</time>
      </trkpt>
      <trkpt lat="49.01384" lon="1.16919">
        <ele>112.61</ele>
        <time>2012-05-06T16:53:36Z</time>
      </trkpt>
      <trkpt lat="49.01354" lon="1.16906">
        <ele>112.13</ele>
        <time>2012-05-06T16:53:47Z</time>
      </trkpt>
      <trkpt lat="49.01325" lon="1.16893">
        <ele>113.09</ele>
        <time>2012-05-06T16:53:58Z</time>
      </trkpt>
      <trkpt lat="49.01288" lon="1.16875">
        <ele>114.05</ele>
        <time>2012-05-06T16:54:11Z</time>
      </trkpt>
      <trkpt lat="49.01253" lon="1.16857">
        <ele>114.05</ele>
        <time>2012-05-06T16:54:24Z</time>
      </trkpt>
      <trkpt lat="49.01224" lon="1.1684">
        <ele>114.53</ele>
        <time>2012-05-06T16:54:34Z</time>
      </trkpt>
      <trkpt lat="49.01185" lon="1.16828">
        <ele>114.53</ele>
        <time>2012-05-06T16:54:45Z</time>
      </trkpt>
      <trkpt lat="49.01149" lon="1.16813">
        <ele>115.01</ele>
        <time>2012-05-06T16:54:57Z</time>
      </trkpt>
      <trkpt lat="49.01121" lon="1.16802">
        <ele>115.01</ele>
        <time>2012-05-06T16:55:06Z</time>
      </trkpt>
      <trkpt lat="49.01088" lon="1.16784">
        <ele>115.01</ele>
        <time>2012-05-06T16:55:18Z</time>
      </trkpt>
      <trkpt lat="49.0106" lon="1.16765">
        <ele>115.5</ele>
        <time>2012-05-06T16:55:29Z</time>
      </trkpt>
      <trkpt lat="49.01035" lon="1.16744">
        <ele>115.98</ele>
        <time>2012-05-06T16:55:40Z</time>
      </trkpt>
      <trkpt lat="49.01003" lon="1.16721">
        <ele>115.98</ele>
        <time>2012-05-06T16:55:52Z</time>
      </trkpt>
      <trkpt lat="49.00996" lon="1.16713">
        <ele>115.98</ele>
        <time>2012-05-06T16:55:55Z</time>
      </trkpt>
      <trkpt lat="49.00988" lon="1.16678">
        <ele>116.46</ele>
        <time>2012-05-06T16:56:03Z</time>
      </trkpt>
      <trkpt lat="49.00987" lon="1.16675">
        <ele>116.94</ele>
        <time>2012-05-06T16:56:04Z</time>
      </trkpt>
      <trkpt lat="49.00985" lon="1.16672">
        <ele>116.94</ele>
        <time>2012-05-06T16:56:05Z</time>
      </trkpt>
      <trkpt lat="49.00982" lon="1.1667">
        <ele>116.94</ele>
        <time>2012-05-06T16:56:06Z</time>
      </trkpt>
      <trkpt lat="49.0098" lon="1.16667">
        <ele>116.94</ele>
        <time>2012-05-06T16:56:07Z</time>
      </trkpt>
      <trkpt lat="49.00977" lon="1.16665">
        <ele>116.46</ele>
        <time>2012-05-06T16:56:08Z</time>
      </trkpt>
      <trkpt lat="49.00975" lon="1.16664">
        <ele>115.98</ele>
        <time>2012-05-06T16:56:09Z</time>
      </trkpt>
      <trkpt lat="49.00972" lon="1.16663">
        <ele>116.46</ele>
        <time>2012-05-06T16:56:10Z</time>
      </trkpt>
      <trkpt lat="49.00947" lon="1.16663">
        <ele>115.98</ele>
        <time>2012-05-06T16:56:20Z</time>
      </trkpt>
      <trkpt lat="49.00938" lon="1.16657">
        <ele>116.46</ele>
        <time>2012-05-06T16:56:24Z</time>
      </trkpt>
      <trkpt lat="49.00936" lon="1.16655">
        <ele>116.46</ele>
        <time>2012-05-06T16:56:25Z</time>
      </trkpt>
      <trkpt lat="49.00934" lon="1.16653">
        <ele>116.46</ele>
        <time>2012-05-06T16:56:26Z</time>
      </trkpt>
      <trkpt lat="49.00932" lon="1.1665">
        <ele>116.46</ele>
        <time>2012-05-06T16:56:27Z</time>
      </trkpt>
      <trkpt lat="49.00929" lon="1.16648">
        <ele>115.98</ele>
        <time>2012-05-06T16:56:28Z</time>
      </trkpt>
      <trkpt lat="49.00897" lon="1.16618">
        <ele>115.98</ele>
        <time>2012-05-06T16:56:41Z</time>
      </trkpt>
      <trkpt lat="49.00871" lon="1.16591">
        <ele>115.98</ele>
        <time>2012-05-06T16:56:52Z</time>
      </trkpt>
      <trkpt lat="49.00845" lon="1.16569">
        <ele>115.98</ele>
        <time>2012-05-06T16:57:02Z</time>
      </trkpt>
      <trkpt lat="49.00814" lon="1.16533">
        <ele>115.5</ele>
        <time>2012-05-06T16:57:15Z</time>
      </trkpt>
      <trkpt lat="49.00791" lon="1.165">
        <ele>115.5</ele>
        <time>2012-05-06T16:57:26Z</time>
      </trkpt>
      <trkpt lat="49.00767" lon="1.16465">
        <ele>115.5</ele>
        <time>2012-05-06T16:57:37Z</time>
      </trkpt>
      <trkpt lat="49.00748" lon="1.16426">
        <ele>115.5</ele>
        <time>2012-05-06T16:57:48Z</time>
      </trkpt>
      <trkpt lat="49.0074" lon="1.16409">
        <ele>115.5</ele>
        <time>2012-05-06T16:57:53Z</time>
      </trkpt>
      <trkpt lat="49.00738" lon="1.16408">
        <ele>115.98</ele>
        <time>2012-05-06T16:57:54Z</time>
      </trkpt>
      <trkpt lat="49.00736" lon="1.16407">
        <ele>115.98</ele>
        <time>2012-05-06T16:57:55Z</time>
      </trkpt>
      <trkpt lat="49.00732" lon="1.16403">
        <ele>115.5</ele>
        <time>2012-05-06T16:57:57Z</time>
      </trkpt>
      <trkpt lat="49.00729" lon="1.164">
        <ele>115.5</ele>
        <time>2012-05-06T16:57:58Z</time>
      </trkpt>
      <trkpt lat="49.00728" lon="1.16398">
        <ele>115.5</ele>
        <time>2012-05-06T16:57:59Z</time>
      </trkpt>
      <trkpt lat="49.00711" lon="1.16368">
        <ele>115.01</ele>
        <time>2012-05-06T16:58:08Z</time>
      </trkpt>
      <trkpt lat="49.00686" lon="1.16323">
        <ele>115.5</ele>
        <time>2012-05-06T16:58:21Z</time>
      </trkpt>
      <trkpt lat="49.00668" lon="1.16284">
        <ele>115.5</ele>
        <time>2012-05-06T16:58:32Z</time>
      </trkpt>
      <trkpt lat="49.00665" lon="1.16277">
        <ele>115.5</ele>
        <time>2012-05-06T16:58:34Z</time>
      </trkpt>
      <trkpt lat="49.00663" lon="1.16273">
        <ele>115.5</ele>
        <time>2012-05-06T16:58:35Z</time>
      </trkpt>
      <trkpt lat="49.00663" lon="1.16269">
        <ele>115.98</ele>
        <time>2012-05-06T16:58:36Z</time>
      </trkpt>
      <trkpt lat="49.00662" lon="1.16265">
        <ele>115.98</ele>
        <time>2012-05-06T16:58:37Z</time>
      </trkpt>
      <trkpt lat="49.0066" lon="1.1626">
        <ele>115.5</ele>
        <time>2012-05-06T16:58:38Z</time>
      </trkpt>
      <trkpt lat="49.0066" lon="1.16256">
        <ele>115.01</ele>
        <time>2012-05-06T16:58:39Z</time>
      </trkpt>
      <trkpt lat="49.0066" lon="1.16252">
        <ele>115.98</ele>
        <time>2012-05-06T16:58:40Z</time>
      </trkpt>
      <trkpt lat="49.00662" lon="1.16248">
        <ele>115.5</ele>
        <time>2012-05-06T16:58:41Z</time>
      </trkpt>
      <trkpt lat="49.00663" lon="1.16245">
        <ele>115.5</ele>
        <time>2012-05-06T16:58:42Z</time>
      </trkpt>
      <trkpt lat="49.00666" lon="1.16241">
        <ele>115.98</ele>
        <time>2012-05-06T16:58:43Z</time>
      </trkpt>
      <trkpt lat="49.00668" lon="1.16238">
        <ele>115.98</ele>
        <time>2012-05-06T16:58:44Z</time>
      </trkpt>
      <trkpt lat="49.00668" lon="1.16235">
        <ele>115.98</ele>
        <time>2012-05-06T16:58:45Z</time>
      </trkpt>
      <trkpt lat="49.00667" lon="1.16231">
        <ele>115.5</ele>
        <time>2012-05-06T16:58:46Z</time>
      </trkpt>
      <trkpt lat="49.00665" lon="1.16228">
        <ele>115.5</ele>
        <time>2012-05-06T16:58:47Z</time>
      </trkpt>
      <trkpt lat="49.00663" lon="1.16226">
        <ele>115.5</ele>
        <time>2012-05-06T16:58:48Z</time>
      </trkpt>
      <trkpt lat="49.00649" lon="1.16215">
        <ele>115.98</ele>
        <time>2012-05-06T16:58:54Z</time>
      </trkpt>
      <trkpt lat="49.00647" lon="1.16211">
        <ele>115.98</ele>
        <time>2012-05-06T16:58:55Z</time>
      </trkpt>
      <trkpt lat="49.00646" lon="1.16207">
        <ele>115.5</ele>
        <time>2012-05-06T16:58:56Z</time>
      </trkpt>
      <trkpt lat="49.00645" lon="1.16203">
        <ele>115.98</ele>
        <time>2012-05-06T16:58:57Z</time>
      </trkpt>
      <trkpt lat="49.00644" lon="1.16199">
        <ele>115.98</ele>
        <time>2012-05-06T16:58:58Z</time>
      </trkpt>
      <trkpt lat="49.00643" lon="1.16195">
        <ele>115.5</ele>
        <time>2012-05-06T16:58:59Z</time>
      </trkpt>
      <trkpt lat="49.00642" lon="1.16191">
        <ele>115.5</ele>
        <time>2012-05-06T16:59:00Z</time>
      </trkpt>
      <trkpt lat="49.0064" lon="1.16188">
        <ele>115.5</ele>
        <time>2012-05-06T16:59:01Z</time>
      </trkpt>
      <trkpt lat="49.00638" lon="1.16185">
        <ele>115.5</ele>
        <time>2012-05-06T16:59:02Z</time>
      </trkpt>
      <trkpt lat="49.00617" lon="1.16166">
        <ele>115.5</ele>
        <time>2012-05-06T16:59:11Z</time>
      </trkpt>
      <trkpt lat="49.00604" lon="1.1613">
        <ele>115.98</ele>
        <time>2012-05-06T16:59:21Z</time>
      </trkpt>
      <trkpt lat="49.00583" lon="1.16075">
        <ele>116.46</ele>
        <time>2012-05-06T16:59:36Z</time>
      </trkpt>
      <trkpt lat="49.00567" lon="1.16038">
        <ele>116.46</ele>
        <time>2012-05-06T16:59:47Z</time>
      </trkpt>
      <trkpt lat="49.0056" lon="1.16006">
        <ele>116.46</ele>
        <time>2012-05-06T16:59:55Z</time>
      </trkpt>
      <trkpt lat="49.0056" lon="1.16004">
        <ele>115.98</ele>
        <time>2012-05-06T16:59:56Z</time>
      </trkpt>
      <trkpt lat="49.00562" lon="1.16005">
        <ele>115.98</ele>
        <time>2012-05-06T16:59:57Z</time>
      </trkpt>
      <trkpt lat="49.00563" lon="1.16007">
        <ele>115.98</ele>
        <time>2012-05-06T16:59:58Z</time>
      </trkpt>
      <trkpt lat="49.00564" lon="1.16009">
        <ele>115.98</ele>
        <time>2012-05-06T16:59:59Z</time>
      </trkpt>
      <trkpt lat="49.00566" lon="1.16012">
        <ele>115.98</ele>
        <time>2012-05-06T17:00:00Z</time>
      </trkpt>
      <trkpt lat="49.00568" lon="1.16014">
        <ele>115.98</ele>
        <time>2012-05-06T17:00:01Z</time>
      </trkpt>
      <trkpt lat="49.0057" lon="1.16015">
        <ele>116.46</ele>
        <time>2012-05-06T17:00:02Z</time>
      </trkpt>
      <trkpt lat="49.00573" lon="1.16016">
        <ele>115.98</ele>
        <time>2012-05-06T17:00:03Z</time>
      </trkpt>
      <trkpt lat="49.00575" lon="1.16018">
        <ele>115.98</ele>
        <time>2012-05-06T17:00:04Z</time>
      </trkpt>
      <trkpt lat="49.00577" lon="1.16019">
        <ele>115.98</ele>
        <time>2012-05-06T17:00:05Z</time>
      </trkpt>
      <trkpt lat="49.00578" lon="1.1602">
        <ele>115.5</ele>
        <time>2012-05-06T17:00:06Z</time>
      </trkpt>
      <trkpt lat="49.0058" lon="1.16022">
        <ele>115.5</ele>
        <time>2012-05-06T17:00:07Z</time>
      </trkpt>
      <trkpt lat="49.00581" lon="1.16022">
        <ele>115.5</ele>
        <time>2012-05-06T17:00:08Z</time>
      </trkpt>
      <trkpt lat="49.00597" lon="1.16034">
        <ele>115.5</ele>
        <time>2012-05-06T17:00:21Z</time>
      </trkpt>
      <trkpt lat="49.00599" lon="1.16039">
        <ele>115.98</ele>
        <time>2012-05-06T17:00:31Z</time>
      </trkpt>
      <trkpt lat="49.00599" lon="1.16039">
        <ele>116.46</ele>
        <time>2012-05-06T17:00:48Z</time>
      </trkpt>
      <trkpt lat="49.00599" lon="1.16039">
        <ele>116.46</ele>
        <time>2012-05-06T17:01:02Z</time>
      </trkpt>
      <trkpt lat="49.00599" lon="1.16041">
        <ele>116.46</ele>
        <time>2012-05-06T17:01:19Z</time>
      </trkpt>
      <trkpt lat="49.00599" lon="1.16041">
        <ele>116.46</ele>
        <time>2012-05-06T17:01:39Z</time>
      </trkpt>
      <trkpt lat="49.00599" lon="1.1604">
        <ele>116.94</ele>
        <time>2012-05-06T17:02:02Z</time>
      </trkpt>
      <trkpt lat="49.00599" lon="1.16041">
        <ele>117.42</ele>
        <time>2012-05-06T17:02:29Z</time>
      </trkpt>
      <trkpt lat="49.00599" lon="1.16041">
        <ele>117.42</ele>
        <time>2012-05-06T17:02:58Z</time>
      </trkpt>
      <trkpt lat="49.00599" lon="1.16042">
        <ele>117.42</ele>
        <time>2012-05-06T17:03:28Z</time>
      </trkpt>
      <trkpt lat="49.00599" lon="1.16042">
        <ele>117.9</ele>
        <time>2012-05-06T17:03:58Z</time>
      </trkpt>
      <trkpt lat="49.00599" lon="1.16042">
        <ele>118.38</ele>
        <time>2012-05-06T17:04:24Z</time>
      </trkpt>
      <trkpt lat="49.00599" lon="1.16043">
        <ele>118.38</ele>
        <time>2012-05-06T17:04:54Z</time>
      </trkpt>
      <trkpt lat="49.00599" lon="1.16043">
        <ele>118.38</ele>
        <time>2012-05-06T17:05:19Z</time>
      </trkpt>
      <trkpt lat="49.00599" lon="1.16043">
        <ele>119.34</ele>
        <time>2012-05-06T17:05:43Z</time>
      </trkpt>
      <trkpt lat="49.00599" lon="1.16043">
        <ele>119.34</ele>
        <time>2012-05-06T17:06:07Z</time>
      </trkpt>
      <trkpt lat="49.00599" lon="1.16043">
        <ele>119.34</ele>
        <time>2012-05-06T17:06:34Z</time>
      </trkpt>
      <trkpt lat="49.00599" lon="1.16043">
        <ele>119.82</ele>
        <time>2012-05-06T17:07:01Z</time>
      </trkpt>
      <trkpt lat="49.00599" lon="1.16043">
        <ele>120.3</ele>
        <time>2012-05-06T17:07:04Z</time>
      </trkpt>
      <trkpt lat="49.00597" lon="1.16042">
        <ele>119.82</ele>
        <time>2012-05-06T17:07:05Z</time>
      </trkpt>
      <trkpt lat="49.00596" lon="1.16041">
        <ele>119.82</ele>
        <time>2012-05-06T17:07:06Z</time>
      </trkpt>
      <trkpt lat="49.00594" lon="1.1604">
        <ele>120.3</ele>
        <time>2012-05-06T17:07:07Z</time>
      </trkpt>
      <trkpt lat="49.00593" lon="1.16038">
        <ele>120.3</ele>
        <time>2012-05-06T17:07:08Z</time>
      </trkpt>
      <trkpt lat="49.00591" lon="1.16037">
        <ele>120.3</ele>
        <time>2012-05-06T17:07:09Z</time>
      </trkpt>
      <trkpt lat="49.0059" lon="1.16036">
        <ele>119.82</ele>
        <time>2012-05-06T17:07:10Z</time>
      </trkpt>
      <trkpt lat="49.00564" lon="1.1601">
        <ele>121.26</ele>
        <time>2012-05-06T17:07:20Z</time>
      </trkpt>
      <trkpt lat="49.00547" lon="1.15973">
        <ele>120.78</ele>
        <time>2012-05-06T17:07:29Z</time>
      </trkpt>
      <trkpt lat="49.00542" lon="1.15957">
        <ele>120.3</ele>
        <time>2012-05-06T17:07:32Z</time>
      </trkpt>
      <trkpt lat="49.00539" lon="1.15954">
        <ele>120.78</ele>
        <time>2012-05-06T17:07:33Z</time>
      </trkpt>
      <trkpt lat="49.00537" lon="1.15951">
        <ele>120.78</ele>
        <time>2012-05-06T17:07:34Z</time>
      </trkpt>
      <trkpt lat="49.00535" lon="1.15948">
        <ele>121.26</ele>
        <time>2012-05-06T17:07:35Z</time>
      </trkpt>
      <trkpt lat="49.00533" lon="1.15943">
        <ele>120.78</ele>
        <time>2012-05-06T17:07:36Z</time>
      </trkpt>
      <trkpt lat="49.00531" lon="1.15938">
        <ele>120.78</ele>
        <time>2012-05-06T17:07:37Z</time>
      </trkpt>
      <trkpt lat="49.0053" lon="1.15934">
        <ele>120.78</ele>
        <time>2012-05-06T17:07:38Z</time>
      </trkpt>
      <trkpt lat="49.0051" lon="1.15888">
        <ele>120.78</ele>
        <time>2012-05-06T17:07:49Z</time>
      </trkpt>
      <trkpt lat="49.00495" lon="1.15847">
        <ele>120.3</ele>
        <time>2012-05-06T17:07:59Z</time>
      </trkpt>
      <trkpt lat="49.00483" lon="1.15806">
        <ele>120.78</ele>
        <time>2012-05-06T17:08:09Z</time>
      </trkpt>
      <trkpt lat="49.00464" lon="1.15759">
        <ele>120.78</ele>
        <time>2012-05-06T17:08:20Z</time>
      </trkpt>
      <trkpt lat="49.0046" lon="1.15753">
        <ele>120.3</ele>
        <time>2012-05-06T17:08:22Z</time>
      </trkpt>
      <trkpt lat="49.00457" lon="1.15751">
        <ele>120.78</ele>
        <time>2012-05-06T17:08:23Z</time>
      </trkpt>
      <trkpt lat="49.00454" lon="1.15751">
        <ele>120.78</ele>
        <time>2012-05-06T17:08:24Z</time>
      </trkpt>
      <trkpt lat="49.00452" lon="1.15752">
        <ele>120.78</ele>
        <time>2012-05-06T17:08:25Z</time>
      </trkpt>
      <trkpt lat="49.00449" lon="1.15752">
        <ele>120.78</ele>
        <time>2012-05-06T17:08:26Z</time>
      </trkpt>
      <trkpt lat="49.00446" lon="1.15753">
        <ele>121.26</ele>
        <time>2012-05-06T17:08:27Z</time>
      </trkpt>
      <trkpt lat="49.00443" lon="1.15752">
        <ele>121.26</ele>
        <time>2012-05-06T17:08:28Z</time>
      </trkpt>
      <trkpt lat="49.0044" lon="1.15751">
        <ele>120.78</ele>
        <time>2012-05-06T17:08:29Z</time>
      </trkpt>
      <trkpt lat="49.00437" lon="1.15748">
        <ele>121.26</ele>
        <time>2012-05-06T17:08:30Z</time>
      </trkpt>
      <trkpt lat="49.00435" lon="1.15745">
        <ele>121.26</ele>
        <time>2012-05-06T17:08:31Z</time>
      </trkpt>
      <trkpt lat="49.00431" lon="1.15743">
        <ele>120.78</ele>
        <time>2012-05-06T17:08:32Z</time>
      </trkpt>
      <trkpt lat="49.00428" lon="1.15741">
        <ele>121.26</ele>
        <time>2012-05-06T17:08:33Z</time>
      </trkpt>
      <trkpt lat="49.00412" lon="1.15732">
        <ele>121.74</ele>
        <time>2012-05-06T17:08:39Z</time>
      </trkpt>
      <trkpt lat="49.0041" lon="1.15732">
        <ele>121.26</ele>
        <time>2012-05-06T17:08:40Z</time>
      </trkpt>
      <trkpt lat="49.00384" lon="1.15745">
        <ele>121.74</ele>
        <time>2012-05-06T17:08:49Z</time>
      </trkpt>
      <trkpt lat="49.00379" lon="1.1575">
        <ele>121.26</ele>
        <time>2012-05-06T17:08:51Z</time>
      </trkpt>
      <trkpt lat="49.00377" lon="1.15753">
        <ele>121.74</ele>
        <time>2012-05-06T17:08:52Z</time>
      </trkpt>
      <trkpt lat="49.00374" lon="1.15755">
        <ele>121.74</ele>
        <time>2012-05-06T17:08:53Z</time>
      </trkpt>
      <trkpt lat="49.00371" lon="1.15756">
        <ele>121.74</ele>
        <time>2012-05-06T17:08:54Z</time>
      </trkpt>
      <trkpt lat="49.00368" lon="1.15758">
        <ele>122.22</ele>
        <time>2012-05-06T17:08:55Z</time>
      </trkpt>
      <trkpt lat="49.00331" lon="1.15782">
        <ele>122.22</ele>
        <time>2012-05-06T17:09:08Z</time>
      </trkpt>
      <trkpt lat="49.00301" lon="1.15801">
        <ele>122.22</ele>
        <time>2012-05-06T17:09:19Z</time>
      </trkpt>
      <trkpt lat="49.00275" lon="1.15819">
        <ele>122.71</ele>
        <time>2012-05-06T17:09:28Z</time>
      </trkpt>
      <trkpt lat="49.00248" lon="1.15802">
        <ele>123.19</ele>
        <time>2012-05-06T17:09:38Z</time>
      </trkpt>
      <trkpt lat="49.00237" lon="1.15756">
        <ele>123.19</ele>
        <time>2012-05-06T17:09:49Z</time>
      </trkpt>
      <trkpt lat="49.00227" lon="1.15712">
        <ele>124.15</ele>
        <time>2012-05-06T17:10:00Z</time>
      </trkpt>
      <trkpt lat="49.00216" lon="1.15666">
        <ele>124.15</ele>
        <time>2012-05-06T17:10:11Z</time>
      </trkpt>
      <trkpt lat="49.00208" lon="1.1562">
        <ele>124.15</ele>
        <time>2012-05-06T17:10:22Z</time>
      </trkpt>
      <trkpt lat="49.00197" lon="1.15568">
        <ele>124.63</ele>
        <time>2012-05-06T17:10:34Z</time>
      </trkpt>
      <trkpt lat="49.00193" lon="1.15556">
        <ele>125.11</ele>
        <time>2012-05-06T17:10:37Z</time>
      </trkpt>
      <trkpt lat="49.00192" lon="1.15552">
        <ele>125.11</ele>
        <time>2012-05-06T17:10:38Z</time>
      </trkpt>
      <trkpt lat="49.00185" lon="1.15517">
        <ele>125.59</ele>
        <time>2012-05-06T17:10:48Z</time>
      </trkpt>
      <trkpt lat="49.00174" lon="1.15461">
        <ele>126.55</ele>
        <time>2012-05-06T17:11:01Z</time>
      </trkpt>
      <trkpt lat="49.00162" lon="1.15407">
        <ele>126.55</ele>
        <time>2012-05-06T17:11:13Z</time>
      </trkpt>
      <trkpt lat="49.00148" lon="1.15367">
        <ele>126.55</ele>
        <time>2012-05-06T17:11:23Z</time>
      </trkpt>
      <trkpt lat="49.00142" lon="1.15328">
        <ele>127.03</ele>
        <time>2012-05-06T17:11:33Z</time>
      </trkpt>
      <trkpt lat="49.00143" lon="1.15323">
        <ele>127.51</ele>
        <time>2012-05-06T17:11:34Z</time>
      </trkpt>
      <trkpt lat="49.00146" lon="1.1532">
        <ele>127.51</ele>
        <time>2012-05-06T17:11:35Z</time>
      </trkpt>
      <trkpt lat="49.00148" lon="1.15317">
        <ele>127.51</ele>
        <time>2012-05-06T17:11:36Z</time>
      </trkpt>
      <trkpt lat="49.00151" lon="1.15314">
        <ele>127.51</ele>
        <time>2012-05-06T17:11:37Z</time>
      </trkpt>
      <trkpt lat="49.00184" lon="1.15293">
        <ele>127.51</ele>
        <time>2012-05-06T17:11:48Z</time>
      </trkpt>
      <trkpt lat="49.00208" lon="1.15268">
        <ele>127.03</ele>
        <time>2012-05-06T17:11:58Z</time>
      </trkpt>
      <trkpt lat="49.00225" lon="1.15255">
        <ele>126.55</ele>
        <time>2012-05-06T17:12:06Z</time>
      </trkpt>
      <trkpt lat="49.00227" lon="1.15254">
        <ele>126.07</ele>
        <time>2012-05-06T17:12:07Z</time>
      </trkpt>
      <trkpt lat="49.00229" lon="1.15253">
        <ele>126.55</ele>
        <time>2012-05-06T17:12:08Z</time>
      </trkpt>
      <trkpt lat="49.00231" lon="1.15251">
        <ele>126.07</ele>
        <time>2012-05-06T17:12:09Z</time>
      </trkpt>
      <trkpt lat="49.00232" lon="1.1525">
        <ele>126.07</ele>
        <time>2012-05-06T17:12:10Z</time>
      </trkpt>
      <trkpt lat="49.00234" lon="1.15249">
        <ele>126.07</ele>
        <time>2012-05-06T17:12:11Z</time>
      </trkpt>
      <trkpt lat="49.00236" lon="1.15248">
        <ele>126.55</ele>
        <time>2012-05-06T17:12:12Z</time>
      </trkpt>
      <trkpt lat="49.00237" lon="1.15247">
        <ele>125.59</ele>
        <time>2012-05-06T17:12:13Z</time>
      </trkpt>
      <trkpt lat="49.00239" lon="1.15245">
        <ele>126.55</ele>
        <time>2012-05-06T17:12:14Z</time>
      </trkpt>
      <trkpt lat="49.00241" lon="1.15244">
        <ele>126.55</ele>
        <time>2012-05-06T17:12:15Z</time>
      </trkpt>
      <trkpt lat="49.00243" lon="1.15242">
        <ele>126.55</ele>
        <time>2012-05-06T17:12:16Z</time>
      </trkpt>
      <trkpt lat="49.00246" lon="1.1524">
        <ele>126.55</ele>
        <time>2012-05-06T17:12:17Z</time>
      </trkpt>
      <trkpt lat="49.00248" lon="1.15239">
        <ele>126.55</ele>
        <time>2012-05-06T17:12:18Z</time>
      </trkpt>
      <trkpt lat="49.00251" lon="1.15238">
        <ele>126.55</ele>
        <time>2012-05-06T17:12:19Z</time>
      </trkpt>
      <trkpt lat="49.00253" lon="1.15237">
        <ele>126.07</ele>
        <time>2012-05-06T17:12:20Z</time>
      </trkpt>
      <trkpt lat="49.00256" lon="1.15235">
        <ele>126.55</ele>
        <time>2012-05-06T17:12:21Z</time>
      </trkpt>
      <trkpt lat="49.00285" lon="1.15219">
        <ele>126.07</ele>
        <time>2012-05-06T17:12:34Z</time>
      </trkpt>
      <trkpt lat="49.00293" lon="1.15215">
        <ele>125.59</ele>
        <time>2012-05-06T17:12:36Z</time>
      </trkpt>
      <trkpt lat="49.00301" lon="1.15209">
        <ele>125.11</ele>
        <time>2012-05-06T17:12:37Z</time>
      </trkpt>
      <trkpt lat="49.00308" lon="1.15196">
        <ele>125.11</ele>
        <time>2012-05-06T17:12:40Z</time>
      </trkpt>
      <trkpt lat="49.00311" lon="1.15193">
        <ele>125.59</ele>
        <time>2012-05-06T17:12:41Z</time>
      </trkpt>
      <trkpt lat="49.00332" lon="1.15172">
        <ele>125.11</ele>
        <time>2012-05-06T17:12:49Z</time>
      </trkpt>
      <trkpt lat="49.00335" lon="1.15167">
        <ele>125.11</ele>
        <time>2012-05-06T17:12:51Z</time>
      </trkpt>
      <trkpt lat="49.00338" lon="1.15158">
        <ele>124.63</ele>
        <time>2012-05-06T17:12:54Z</time>
      </trkpt>
      <trkpt lat="49.00339" lon="1.15155">
        <ele>124.63</ele>
        <time>2012-05-06T17:12:55Z</time>
      </trkpt>
      <trkpt lat="49.0034" lon="1.15153">
        <ele>124.63</ele>
        <time>2012-05-06T17:12:56Z</time>
      </trkpt>
      <trkpt lat="49.00343" lon="1.15151">
        <ele>124.63</ele>
        <time>2012-05-06T17:12:57Z</time>
      </trkpt>
      <trkpt lat="49.00346" lon="1.15149">
        <ele>124.63</ele>
        <time>2012-05-06T17:12:58Z</time>
      </trkpt>
      <trkpt lat="49.0035" lon="1.15144">
        <ele>124.63</ele>
        <time>2012-05-06T17:13:00Z</time>
      </trkpt>
      <trkpt lat="49.00351" lon="1.1514">
        <ele>124.15</ele>
        <time>2012-05-06T17:13:01Z</time>
      </trkpt>
      <trkpt lat="49.00351" lon="1.15135">
        <ele>124.15</ele>
        <time>2012-05-06T17:13:02Z</time>
      </trkpt>
      <trkpt lat="49.00346" lon="1.15099">
        <ele>123.67</ele>
        <time>2012-05-06T17:13:09Z</time>
      </trkpt>
      <trkpt lat="49.00346" lon="1.15094">
        <ele>124.15</ele>
        <time>2012-05-06T17:13:10Z</time>
      </trkpt>
      <trkpt lat="49.00339" lon="1.15034">
        <ele>123.19</ele>
        <time>2012-05-06T17:13:23Z</time>
      </trkpt>
      <trkpt lat="49.00336" lon="1.1499">
        <ele>122.71</ele>
        <time>2012-05-06T17:13:33Z</time>
      </trkpt>
      <trkpt lat="49.00335" lon="1.14942">
        <ele>122.71</ele>
        <time>2012-05-06T17:13:44Z</time>
      </trkpt>
      <trkpt lat="49.00342" lon="1.14906">
        <ele>121.26</ele>
        <time>2012-05-06T17:13:53Z</time>
      </trkpt>
      <trkpt lat="49.00353" lon="1.14875">
        <ele>121.26</ele>
        <time>2012-05-06T17:14:01Z</time>
      </trkpt>
      <trkpt lat="49.00374" lon="1.14836">
        <ele>120.3</ele>
        <time>2012-05-06T17:14:11Z</time>
      </trkpt>
      <trkpt lat="49.00396" lon="1.14804">
        <ele>120.3</ele>
        <time>2012-05-06T17:14:21Z</time>
      </trkpt>
      <trkpt lat="49.0042" lon="1.14775">
        <ele>119.34</ele>
        <time>2012-05-06T17:14:31Z</time>
      </trkpt>
      <trkpt lat="49.00441" lon="1.14752">
        <ele>118.86</ele>
        <time>2012-05-06T17:14:40Z</time>
      </trkpt>
      <trkpt lat="49.00463" lon="1.14724">
        <ele>117.9</ele>
        <time>2012-05-06T17:14:50Z</time>
      </trkpt>
      <trkpt lat="49.00487" lon="1.14697">
        <ele>118.38</ele>
        <time>2012-05-06T17:15:00Z</time>
      </trkpt>
      <trkpt lat="49.00507" lon="1.1468">
        <ele>118.38</ele>
        <time>2012-05-06T17:15:08Z</time>
      </trkpt>
      <trkpt lat="49.0053" lon="1.14659">
        <ele>117.42</ele>
        <time>2012-05-06T17:15:17Z</time>
      </trkpt>
      <trkpt lat="49.00555" lon="1.14627">
        <ele>116.46</ele>
        <time>2012-05-06T17:15:28Z</time>
      </trkpt>
      <trkpt lat="49.00579" lon="1.14603">
        <ele>115.98</ele>
        <time>2012-05-06T17:15:38Z</time>
      </trkpt>
      <trkpt lat="49.006" lon="1.14585">
        <ele>115.98</ele>
        <time>2012-05-06T17:15:46Z</time>
      </trkpt>
      <trkpt lat="49.00623" lon="1.1455">
        <ele>115.5</ele>
        <time>2012-05-06T17:15:56Z</time>
      </trkpt>
      <trkpt lat="49.0065" lon="1.14518">
        <ele>115.01</ele>
        <time>2012-05-06T17:16:06Z</time>
      </trkpt>
      <trkpt lat="49.00656" lon="1.14507">
        <ele>114.53</ele>
        <time>2012-05-06T17:16:09Z</time>
      </trkpt>
      <trkpt lat="49.00656" lon="1.14502">
        <ele>114.53</ele>
        <time>2012-05-06T17:16:10Z</time>
      </trkpt>
      <trkpt lat="49.00654" lon="1.14496">
        <ele>114.05</ele>
        <time>2012-05-06T17:16:11Z</time>
      </trkpt>
      <trkpt lat="49.00648" lon="1.14452">
        <ele>113.57</ele>
        <time>2012-05-06T17:16:20Z</time>
      </trkpt>
      <trkpt lat="49.00651" lon="1.1445">
        <ele>113.57</ele>
        <time>2012-05-06T17:16:21Z</time>
      </trkpt>
      <trkpt lat="49.00654" lon="1.14449">
        <ele>113.57</ele>
        <time>2012-05-06T17:16:22Z</time>
      </trkpt>
      <trkpt lat="49.00655" lon="1.14448">
        <ele>113.09</ele>
        <time>2012-05-06T17:16:23Z</time>
      </trkpt>
      <trkpt lat="49.00657" lon="1.14447">
        <ele>113.57</ele>
        <time>2012-05-06T17:16:24Z</time>
      </trkpt>
      <trkpt lat="49.00676" lon="1.14428">
        <ele>112.61</ele>
        <time>2012-05-06T17:16:39Z</time>
      </trkpt>
      <trkpt lat="49.00696" lon="1.14411">
        <ele>111.65</ele>
        <time>2012-05-06T17:16:52Z</time>
      </trkpt>
      <trkpt lat="49.00727" lon="1.14385">
        <ele>110.21</ele>
        <time>2012-05-06T17:17:03Z</time>
      </trkpt>
      <trkpt lat="49.00751" lon="1.14369">
        <ele>108.77</ele>
        <time>2012-05-06T17:17:12Z</time>
      </trkpt>
      <trkpt lat="49.00769" lon="1.14359">
        <ele>107.32</ele>
        <time>2012-05-06T17:17:19Z</time>
      </trkpt>
      <trkpt lat="49.00788" lon="1.14356">
        <ele>106.84</ele>
        <time>2012-05-06T17:17:24Z</time>
      </trkpt>
      <trkpt lat="49.00792" lon="1.14356">
        <ele>105.88</ele>
        <time>2012-05-06T17:17:25Z</time>
      </trkpt>
      <trkpt lat="49.00805" lon="1.14354">
        <ele>105.4</ele>
        <time>2012-05-06T17:17:32Z</time>
      </trkpt>
      <trkpt lat="49.00816" lon="1.14351">
        <ele>104.44</ele>
        <time>2012-05-06T17:17:36Z</time>
      </trkpt>
      <trkpt lat="49.00821" lon="1.14351">
        <ele>103.96</ele>
        <time>2012-05-06T17:17:37Z</time>
      </trkpt>
      <trkpt lat="49.00825" lon="1.14351">
        <ele>103.48</ele>
        <time>2012-05-06T17:17:38Z</time>
      </trkpt>
      <trkpt lat="49.00829" lon="1.1435">
        <ele>103.96</ele>
        <time>2012-05-06T17:17:39Z</time>
      </trkpt>
      <trkpt lat="49.00832" lon="1.14351">
        <ele>103.48</ele>
        <time>2012-05-06T17:17:40Z</time>
      </trkpt>
      <trkpt lat="49.00835" lon="1.1435">
        <ele>103.48</ele>
        <time>2012-05-06T17:17:41Z</time>
      </trkpt>
      <trkpt lat="49.00838" lon="1.1435">
        <ele>103</ele>
        <time>2012-05-06T17:17:42Z</time>
      </trkpt>
      <trkpt lat="49.00841" lon="1.1435">
        <ele>103</ele>
        <time>2012-05-06T17:17:43Z</time>
      </trkpt>
      <trkpt lat="49.00846" lon="1.14351">
        <ele>103</ele>
        <time>2012-05-06T17:17:44Z</time>
      </trkpt>
      <trkpt lat="49.0085" lon="1.14351">
        <ele>102.52</ele>
        <time>2012-05-06T17:17:45Z</time>
      </trkpt>
      <trkpt lat="49.00855" lon="1.14353">
        <ele>102.52</ele>
        <time>2012-05-06T17:17:46Z</time>
      </trkpt>
      <trkpt lat="49.00859" lon="1.14355">
        <ele>102.52</ele>
        <time>2012-05-06T17:17:47Z</time>
      </trkpt>
      <trkpt lat="49.00873" lon="1.14368">
        <ele>101.56</ele>
        <time>2012-05-06T17:17:51Z</time>
      </trkpt>
      <trkpt lat="49.00876" lon="1.14369">
        <ele>101.56</ele>
        <time>2012-05-06T17:17:52Z</time>
      </trkpt>
      <trkpt lat="49.00876" lon="1.14365">
        <ele>101.08</ele>
        <time>2012-05-06T17:17:53Z</time>
      </trkpt>
      <trkpt lat="49.00877" lon="1.14361">
        <ele>100.6</ele>
        <time>2012-05-06T17:17:54Z</time>
      </trkpt>
      <trkpt lat="49.00879" lon="1.14357">
        <ele>100.6</ele>
        <time>2012-05-06T17:17:55Z</time>
      </trkpt>
      <trkpt lat="49.0088" lon="1.14353">
        <ele>100.11</ele>
        <time>2012-05-06T17:17:56Z</time>
      </trkpt>
      <trkpt lat="49.00882" lon="1.1435">
        <ele>100.6</ele>
        <time>2012-05-06T17:17:57Z</time>
      </trkpt>
      <trkpt lat="49.00914" lon="1.14324">
        <ele>98.19</ele>
        <time>2012-05-06T17:18:10Z</time>
      </trkpt>
      <trkpt lat="49.0093" lon="1.14315">
        <ele>96.75</ele>
        <time>2012-05-06T17:18:15Z</time>
      </trkpt>
      <trkpt lat="49.00933" lon="1.14315">
        <ele>96.75</ele>
        <time>2012-05-06T17:18:16Z</time>
      </trkpt>
      <trkpt lat="49.00969" lon="1.14284">
        <ele>94.83</ele>
        <time>2012-05-06T17:18:28Z</time>
      </trkpt>
      <trkpt lat="49.01016" lon="1.14259">
        <ele>93.39</ele>
        <time>2012-05-06T17:18:39Z</time>
      </trkpt>
      <trkpt lat="49.01033" lon="1.14248">
        <ele>92.9</ele>
        <time>2012-05-06T17:18:45Z</time>
      </trkpt>
      <trkpt lat="49.01055" lon="1.14232">
        <ele>92.42</ele>
        <time>2012-05-06T17:18:52Z</time>
      </trkpt>
      <trkpt lat="49.01082" lon="1.14214">
        <ele>90.98</ele>
        <time>2012-05-06T17:19:00Z</time>
      </trkpt>
      <trkpt lat="49.01085" lon="1.14212">
        <ele>90.98</ele>
        <time>2012-05-06T17:19:01Z</time>
      </trkpt>
      <trkpt lat="49.01088" lon="1.14211">
        <ele>90.98</ele>
        <time>2012-05-06T17:19:02Z</time>
      </trkpt>
      <trkpt lat="49.01099" lon="1.14208">
        <ele>90.5</ele>
        <time>2012-05-06T17:19:05Z</time>
      </trkpt>
      <trkpt lat="49.01102" lon="1.14208">
        <ele>90.5</ele>
        <time>2012-05-06T17:19:06Z</time>
      </trkpt>
      <trkpt lat="49.01118" lon="1.14201">
        <ele>90.02</ele>
        <time>2012-05-06T17:19:14Z</time>
      </trkpt>
      <trkpt lat="49.01135" lon="1.14193">
        <ele>89.54</ele>
        <time>2012-05-06T17:19:24Z</time>
      </trkpt>
      <trkpt lat="49.01135" lon="1.14188">
        <ele>89.06</ele>
        <time>2012-05-06T17:19:31Z</time>
      </trkpt>
      <trkpt lat="49.01135" lon="1.14185">
        <ele>89.06</ele>
        <time>2012-05-06T17:19:34Z</time>
      </trkpt>
      <trkpt lat="49.01154" lon="1.14178">
        <ele>88.1</ele>
        <time>2012-05-06T17:19:40Z</time>
      </trkpt>
      <trkpt lat="49.01189" lon="1.14177">
        <ele>87.14</ele>
        <time>2012-05-06T17:19:51Z</time>
      </trkpt>
      <trkpt lat="49.01246" lon="1.14192">
        <ele>86.18</ele>
        <time>2012-05-06T17:20:08Z</time>
      </trkpt>
      <trkpt lat="49.01249" lon="1.14194">
        <ele>85.69</ele>
        <time>2012-05-06T17:20:09Z</time>
      </trkpt>
      <trkpt lat="49.01253" lon="1.14196">
        <ele>85.69</ele>
        <time>2012-05-06T17:20:10Z</time>
      </trkpt>
      <trkpt lat="49.01291" lon="1.14212">
        <ele>85.21</ele>
        <time>2012-05-06T17:20:22Z</time>
      </trkpt>
      <trkpt lat="49.01339" lon="1.14236">
        <ele>83.77</ele>
        <time>2012-05-06T17:20:35Z</time>
      </trkpt>
      <trkpt lat="49.01376" lon="1.14279">
        <ele>82.33</ele>
        <time>2012-05-06T17:20:49Z</time>
      </trkpt>
      <trkpt lat="49.01401" lon="1.14307">
        <ele>80.41</ele>
        <time>2012-05-06T17:20:59Z</time>
      </trkpt>
      <trkpt lat="49.01431" lon="1.14345">
        <ele>79.45</ele>
        <time>2012-05-06T17:21:12Z</time>
      </trkpt>
      <trkpt lat="49.01466" lon="1.1439">
        <ele>77.04</ele>
        <time>2012-05-06T17:21:28Z</time>
      </trkpt>
      <trkpt lat="49.015" lon="1.14415">
        <ele>75.6</ele>
        <time>2012-05-06T17:21:41Z</time>
      </trkpt>
      <trkpt lat="49.01534" lon="1.1442">
        <ele>74.16</ele>
        <time>2012-05-06T17:21:52Z</time>
      </trkpt>
      <trkpt lat="49.01572" lon="1.14444">
        <ele>72.72</ele>
        <time>2012-05-06T17:22:04Z</time>
      </trkpt>
      <trkpt lat="49.01598" lon="1.14458">
        <ele>72.24</ele>
        <time>2012-05-06T17:22:12Z</time>
      </trkpt>
      <trkpt lat="49.01628" lon="1.14466">
        <ele>71.27</ele>
        <time>2012-05-06T17:22:22Z</time>
      </trkpt>
      <trkpt lat="49.01632" lon="1.14463">
        <ele>70.79</ele>
        <time>2012-05-06T17:22:23Z</time>
      </trkpt>
      <trkpt lat="49.01635" lon="1.14461">
        <ele>70.79</ele>
        <time>2012-05-06T17:22:24Z</time>
      </trkpt>
      <trkpt lat="49.01637" lon="1.14459">
        <ele>70.79</ele>
        <time>2012-05-06T17:22:25Z</time>
      </trkpt>
      <trkpt lat="49.01639" lon="1.14456">
        <ele>70.31</ele>
        <time>2012-05-06T17:22:26Z</time>
      </trkpt>
      <trkpt lat="49.01642" lon="1.14453">
        <ele>70.79</ele>
        <time>2012-05-06T17:22:27Z</time>
      </trkpt>
      <trkpt lat="49.01644" lon="1.14451">
        <ele>69.83</ele>
        <time>2012-05-06T17:22:28Z</time>
      </trkpt>
      <trkpt lat="49.01647" lon="1.1445">
        <ele>69.83</ele>
        <time>2012-05-06T17:22:29Z</time>
      </trkpt>
      <trkpt lat="49.0165" lon="1.14448">
        <ele>69.83</ele>
        <time>2012-05-06T17:22:30Z</time>
      </trkpt>
      <trkpt lat="49.01653" lon="1.14446">
        <ele>69.35</ele>
        <time>2012-05-06T17:22:31Z</time>
      </trkpt>
      <trkpt lat="49.01656" lon="1.14446">
        <ele>69.35</ele>
        <time>2012-05-06T17:22:32Z</time>
      </trkpt>
      <trkpt lat="49.0166" lon="1.14446">
        <ele>69.83</ele>
        <time>2012-05-06T17:22:33Z</time>
      </trkpt>
      <trkpt lat="49.01664" lon="1.14446">
        <ele>69.35</ele>
        <time>2012-05-06T17:22:34Z</time>
      </trkpt>
      <trkpt lat="49.01668" lon="1.14447">
        <ele>68.87</ele>
        <time>2012-05-06T17:22:35Z</time>
      </trkpt>
      <trkpt lat="49.01678" lon="1.14446">
        <ele>68.39</ele>
        <time>2012-05-06T17:22:38Z</time>
      </trkpt>
      <trkpt lat="49.01682" lon="1.14447">
        <ele>67.91</ele>
        <time>2012-05-06T17:22:39Z</time>
      </trkpt>
      <trkpt lat="49.01684" lon="1.14444">
        <ele>68.39</ele>
        <time>2012-05-06T17:22:40Z</time>
      </trkpt>
      <trkpt lat="49.01687" lon="1.14441">
        <ele>68.39</ele>
        <time>2012-05-06T17:22:41Z</time>
      </trkpt>
      <trkpt lat="49.01689" lon="1.14437">
        <ele>68.39</ele>
        <time>2012-05-06T17:22:42Z</time>
      </trkpt>
      <trkpt lat="49.01691" lon="1.14433">
        <ele>67.91</ele>
        <time>2012-05-06T17:22:43Z</time>
      </trkpt>
      <trkpt lat="49.01714" lon="1.14397">
        <ele>66.47</ele>
        <time>2012-05-06T17:22:53Z</time>
      </trkpt>
      <trkpt lat="49.01725" lon="1.14381">
        <ele>65.51</ele>
        <time>2012-05-06T17:23:01Z</time>
      </trkpt>
      <trkpt lat="49.01754" lon="1.14373">
        <ele>64.55</ele>
        <time>2012-05-06T17:23:13Z</time>
      </trkpt>
      <trkpt lat="49.01785" lon="1.14342">
        <ele>63.1</ele>
        <time>2012-05-06T17:23:22Z</time>
      </trkpt>
      <trkpt lat="49.01798" lon="1.14335">
        <ele>63.58</ele>
        <time>2012-05-06T17:23:25Z</time>
      </trkpt>
      <trkpt lat="49.01801" lon="1.14331">
        <ele>63.58</ele>
        <time>2012-05-06T17:23:26Z</time>
      </trkpt>
      <trkpt lat="49.01804" lon="1.14328">
        <ele>63.1</ele>
        <time>2012-05-06T17:23:27Z</time>
      </trkpt>
      <trkpt lat="49.01814" lon="1.1432">
        <ele>63.1</ele>
        <time>2012-05-06T17:23:31Z</time>
      </trkpt>
      <trkpt lat="49.0184" lon="1.14305">
        <ele>62.62</ele>
        <time>2012-05-06T17:23:40Z</time>
      </trkpt>
      <trkpt lat="49.01843" lon="1.14304">
        <ele>62.62</ele>
        <time>2012-05-06T17:23:41Z</time>
      </trkpt>
      <trkpt lat="49.01846" lon="1.14301">
        <ele>62.14</ele>
        <time>2012-05-06T17:23:42Z</time>
      </trkpt>
      <trkpt lat="49.01848" lon="1.14299">
        <ele>62.62</ele>
        <time>2012-05-06T17:23:43Z</time>
      </trkpt>
      <trkpt lat="49.01849" lon="1.14297">
        <ele>62.62</ele>
        <time>2012-05-06T17:23:44Z</time>
      </trkpt>
      <trkpt lat="49.01854" lon="1.1429">
        <ele>62.62</ele>
        <time>2012-05-06T17:23:56Z</time>
      </trkpt>
      <trkpt lat="49.01857" lon="1.14289">
        <ele>62.62</ele>
        <time>2012-05-06T17:23:58Z</time>
      </trkpt>
      <trkpt lat="49.01859" lon="1.14289">
        <ele>62.62</ele>
        <time>2012-05-06T17:23:59Z</time>
      </trkpt>
      <trkpt lat="49.01861" lon="1.14289">
        <ele>62.14</ele>
        <time>2012-05-06T17:24:00Z</time>
      </trkpt>
      <trkpt lat="49.01878" lon="1.14273">
        <ele>61.66</ele>
        <time>2012-05-06T17:24:09Z</time>
      </trkpt>
      <trkpt lat="49.01897" lon="1.14238">
        <ele>60.22</ele>
        <time>2012-05-06T17:24:19Z</time>
      </trkpt>
      <trkpt lat="49.01915" lon="1.14231">
        <ele>60.7</ele>
        <time>2012-05-06T17:24:26Z</time>
      </trkpt>
      <trkpt lat="49.01919" lon="1.14231">
        <ele>60.22</ele>
        <time>2012-05-06T17:24:27Z</time>
      </trkpt>
      <trkpt lat="49.01922" lon="1.14231">
        <ele>59.74</ele>
        <time>2012-05-06T17:24:28Z</time>
      </trkpt>
      <trkpt lat="49.01925" lon="1.14231">
        <ele>60.22</ele>
        <time>2012-05-06T17:24:29Z</time>
      </trkpt>
      <trkpt lat="49.01926" lon="1.14229">
        <ele>59.74</ele>
        <time>2012-05-06T17:24:30Z</time>
      </trkpt>
      <trkpt lat="49.01931" lon="1.1423">
        <ele>59.74</ele>
        <time>2012-05-06T17:24:32Z</time>
      </trkpt>
      <trkpt lat="49.01933" lon="1.14229">
        <ele>59.74</ele>
        <time>2012-05-06T17:24:33Z</time>
      </trkpt>
      <trkpt lat="49.01934" lon="1.14228">
        <ele>59.74</ele>
        <time>2012-05-06T17:24:34Z</time>
      </trkpt>
      <trkpt lat="49.01956" lon="1.14203">
        <ele>59.26</ele>
        <time>2012-05-06T17:24:43Z</time>
      </trkpt>
      <trkpt lat="49.0196" lon="1.14202">
        <ele>59.26</ele>
        <time>2012-05-06T17:24:44Z</time>
      </trkpt>
      <trkpt lat="49.01963" lon="1.142">
        <ele>59.26</ele>
        <time>2012-05-06T17:24:45Z</time>
      </trkpt>
      <trkpt lat="49.01972" lon="1.14193">
        <ele>58.78</ele>
        <time>2012-05-06T17:24:48Z</time>
      </trkpt>
      <trkpt lat="49.02001" lon="1.14183">
        <ele>58.78</ele>
        <time>2012-05-06T17:24:58Z</time>
      </trkpt>
      <trkpt lat="49.02004" lon="1.14182">
        <ele>58.3</ele>
        <time>2012-05-06T17:24:59Z</time>
      </trkpt>
      <trkpt lat="49.02034" lon="1.14173">
        <ele>57.82</ele>
        <time>2012-05-06T17:25:09Z</time>
      </trkpt>
      <trkpt lat="49.02043" lon="1.14171">
        <ele>57.82</ele>
        <time>2012-05-06T17:25:12Z</time>
      </trkpt>
      <trkpt lat="49.02046" lon="1.14169">
        <ele>57.82</ele>
        <time>2012-05-06T17:25:13Z</time>
      </trkpt>
      <trkpt lat="49.02049" lon="1.14168">
        <ele>58.3</ele>
        <time>2012-05-06T17:25:14Z</time>
      </trkpt>
      <trkpt lat="49.02052" lon="1.14166">
        <ele>57.82</ele>
        <time>2012-05-06T17:25:15Z</time>
      </trkpt>
      <trkpt lat="49.02055" lon="1.14166">
        <ele>57.82</ele>
        <time>2012-05-06T17:25:16Z</time>
      </trkpt>
      <trkpt lat="49.02058" lon="1.14166">
        <ele>57.82</ele>
        <time>2012-05-06T17:25:17Z</time>
      </trkpt>
      <trkpt lat="49.0206" lon="1.14164">
        <ele>57.82</ele>
        <time>2012-05-06T17:25:18Z</time>
      </trkpt>
      <trkpt lat="49.02063" lon="1.14162">
        <ele>57.34</ele>
        <time>2012-05-06T17:25:19Z</time>
      </trkpt>
      <trkpt lat="49.02097" lon="1.14149">
        <ele>57.34</ele>
        <time>2012-05-06T17:25:30Z</time>
      </trkpt>
      <trkpt lat="49.02123" lon="1.1414">
        <ele>56.86</ele>
        <time>2012-05-06T17:25:39Z</time>
      </trkpt>
      <trkpt lat="49.02148" lon="1.14134">
        <ele>57.34</ele>
        <time>2012-05-06T17:25:49Z</time>
      </trkpt>
      <trkpt lat="49.02155" lon="1.14132">
        <ele>57.34</ele>
        <time>2012-05-06T17:25:51Z</time>
      </trkpt>
      <trkpt lat="49.02159" lon="1.14129">
        <ele>57.34</ele>
        <time>2012-05-06T17:25:52Z</time>
      </trkpt>
      <trkpt lat="49.02178" lon="1.14122">
        <ele>57.82</ele>
        <time>2012-05-06T17:25:58Z</time>
      </trkpt>
      <trkpt lat="49.02209" lon="1.14114">
        <ele>57.82</ele>
        <time>2012-05-06T17:26:09Z</time>
      </trkpt>
      <trkpt lat="49.02224" lon="1.14113">
        <ele>57.34</ele>
        <time>2012-05-06T17:26:14Z</time>
      </trkpt>
      <trkpt lat="49.02227" lon="1.14114">
        <ele>57.34</ele>
        <time>2012-05-06T17:26:15Z</time>
      </trkpt>
      <trkpt lat="49.02231" lon="1.14114">
        <ele>57.34</ele>
        <time>2012-05-06T17:26:16Z</time>
      </trkpt>
      <trkpt lat="49.02234" lon="1.14114">
        <ele>57.34</ele>
        <time>2012-05-06T17:26:17Z</time>
      </trkpt>
      <trkpt lat="49.02237" lon="1.14114">
        <ele>57.82</ele>
        <time>2012-05-06T17:26:18Z</time>
      </trkpt>
      <trkpt lat="49.02241" lon="1.14114">
        <ele>57.34</ele>
        <time>2012-05-06T17:26:19Z</time>
      </trkpt>
      <trkpt lat="49.02245" lon="1.14114">
        <ele>57.82</ele>
        <time>2012-05-06T17:26:20Z</time>
      </trkpt>
      <trkpt lat="49.0225" lon="1.14114">
        <ele>57.82</ele>
        <time>2012-05-06T17:26:21Z</time>
      </trkpt>
      <trkpt lat="49.02254" lon="1.14113">
        <ele>57.82</ele>
        <time>2012-05-06T17:26:22Z</time>
      </trkpt>
      <trkpt lat="49.02257" lon="1.14115">
        <ele>57.34</ele>
        <time>2012-05-06T17:26:23Z</time>
      </trkpt>
      <trkpt lat="49.02261" lon="1.14117">
        <ele>57.82</ele>
        <time>2012-05-06T17:26:24Z</time>
      </trkpt>
      <trkpt lat="49.02268" lon="1.14115">
        <ele>57.34</ele>
        <time>2012-05-06T17:26:27Z</time>
      </trkpt>
      <trkpt lat="49.02271" lon="1.14113">
        <ele>57.34</ele>
        <time>2012-05-06T17:26:28Z</time>
      </trkpt>
      <trkpt lat="49.02274" lon="1.1411">
        <ele>57.82</ele>
        <time>2012-05-06T17:26:29Z</time>
      </trkpt>
      <trkpt lat="49.02285" lon="1.14109">
        <ele>57.82</ele>
        <time>2012-05-06T17:26:32Z</time>
      </trkpt>
      <trkpt lat="49.02289" lon="1.1411">
        <ele>57.82</ele>
        <time>2012-05-06T17:26:33Z</time>
      </trkpt>
      <trkpt lat="49.02293" lon="1.14111">
        <ele>57.34</ele>
        <time>2012-05-06T17:26:34Z</time>
      </trkpt>
      <trkpt lat="49.02296" lon="1.14109">
        <ele>57.82</ele>
        <time>2012-05-06T17:26:35Z</time>
      </trkpt>
      <trkpt lat="49.023" lon="1.14107">
        <ele>57.34</ele>
        <time>2012-05-06T17:26:36Z</time>
      </trkpt>
      <trkpt lat="49.02306" lon="1.14097">
        <ele>57.34</ele>
        <time>2012-05-06T17:26:39Z</time>
      </trkpt>
      <trkpt lat="49.02303" lon="1.14088">
        <ele>57.34</ele>
        <time>2012-05-06T17:26:40Z</time>
      </trkpt>
      <trkpt lat="49.02307" lon="1.14131">
        <ele>57.34</ele>
        <time>2012-05-06T17:26:51Z</time>
      </trkpt>
      <trkpt lat="49.02311" lon="1.14178">
        <ele>56.86</ele>
        <time>2012-05-06T17:27:01Z</time>
      </trkpt>
      <trkpt lat="49.02347" lon="1.14226">
        <ele>56.86</ele>
        <time>2012-05-06T17:27:12Z</time>
      </trkpt>
      <trkpt lat="49.0236" lon="1.1429">
        <ele>56.37</ele>
        <time>2012-05-06T17:27:24Z</time>
      </trkpt>
      <trkpt lat="49.02373" lon="1.14343">
        <ele>56.37</ele>
        <time>2012-05-06T17:27:35Z</time>
      </trkpt>
      <trkpt lat="49.02388" lon="1.14367">
        <ele>56.37</ele>
        <time>2012-05-06T17:27:41Z</time>
      </trkpt>
      <trkpt lat="49.02389" lon="1.14369">
        <ele>56.86</ele>
        <time>2012-05-06T17:27:42Z</time>
      </trkpt>
      <trkpt lat="49.02389" lon="1.14371">
        <ele>56.37</ele>
        <time>2012-05-06T17:27:43Z</time>
      </trkpt>
      <trkpt lat="49.02392" lon="1.14371">
        <ele>56.37</ele>
        <time>2012-05-06T17:27:49Z</time>
      </trkpt>
      <trkpt lat="49.02395" lon="1.14369">
        <ele>56.37</ele>
        <time>2012-05-06T17:27:50Z</time>
      </trkpt>
      <trkpt lat="49.02399" lon="1.14367">
        <ele>56.37</ele>
        <time>2012-05-06T17:27:51Z</time>
      </trkpt>
      <trkpt lat="49.02403" lon="1.14365">
        <ele>55.89</ele>
        <time>2012-05-06T17:27:52Z</time>
      </trkpt>
      <trkpt lat="49.02409" lon="1.14363">
        <ele>56.37</ele>
        <time>2012-05-06T17:27:53Z</time>
      </trkpt>
      <trkpt lat="49.02415" lon="1.14361">
        <ele>56.37</ele>
        <time>2012-05-06T17:27:54Z</time>
      </trkpt>
      <trkpt lat="49.02419" lon="1.1436">
        <ele>56.37</ele>
        <time>2012-05-06T17:27:55Z</time>
      </trkpt>
      <trkpt lat="49.02422" lon="1.14359">
        <ele>56.37</ele>
        <time>2012-05-06T17:27:56Z</time>
      </trkpt>
      <trkpt lat="49.02426" lon="1.14358">
        <ele>56.37</ele>
        <time>2012-05-06T17:27:58Z</time>
      </trkpt>
      <trkpt lat="49.02427" lon="1.14357">
        <ele>55.89</ele>
        <time>2012-05-06T17:27:59Z</time>
      </trkpt>
      <trkpt lat="49.02431" lon="1.14354">
        <ele>56.37</ele>
        <time>2012-05-06T17:28:00Z</time>
      </trkpt>
      <trkpt lat="49.02436" lon="1.14352">
        <ele>56.37</ele>
        <time>2012-05-06T17:28:01Z</time>
      </trkpt>
      <trkpt lat="49.0244" lon="1.14351">
        <ele>56.37</ele>
        <time>2012-05-06T17:28:02Z</time>
      </trkpt>
      <trkpt lat="49.02444" lon="1.1435">
        <ele>56.37</ele>
        <time>2012-05-06T17:28:03Z</time>
      </trkpt>
      <trkpt lat="49.02448" lon="1.14349">
        <ele>56.37</ele>
        <time>2012-05-06T17:28:04Z</time>
      </trkpt>
      <trkpt lat="49.02452" lon="1.14349">
        <ele>57.34</ele>
        <time>2012-05-06T17:28:05Z</time>
      </trkpt>
      <trkpt lat="49.02456" lon="1.1435">
        <ele>56.37</ele>
        <time>2012-05-06T17:28:06Z</time>
      </trkpt>
      <trkpt lat="49.02461" lon="1.14351">
        <ele>56.37</ele>
        <time>2012-05-06T17:28:07Z</time>
      </trkpt>
      <trkpt lat="49.02464" lon="1.14351">
        <ele>56.86</ele>
        <time>2012-05-06T17:28:08Z</time>
      </trkpt>
      <trkpt lat="49.02471" lon="1.14354">
        <ele>56.37</ele>
        <time>2012-05-06T17:28:10Z</time>
      </trkpt>
      <trkpt lat="49.02494" lon="1.14342">
        <ele>56.86</ele>
        <time>2012-05-06T17:28:18Z</time>
      </trkpt>
      <trkpt lat="49.02497" lon="1.14339">
        <ele>56.86</ele>
        <time>2012-05-06T17:28:21Z</time>
      </trkpt>
      <trkpt lat="49.02499" lon="1.14338">
        <ele>56.86</ele>
        <time>2012-05-06T17:28:22Z</time>
      </trkpt>
      <trkpt lat="49.02501" lon="1.14336">
        <ele>56.86</ele>
        <time>2012-05-06T17:28:23Z</time>
      </trkpt>
      <trkpt lat="49.02503" lon="1.14334">
        <ele>56.86</ele>
        <time>2012-05-06T17:28:24Z</time>
      </trkpt>
      <trkpt lat="49.02505" lon="1.14334">
        <ele>56.86</ele>
        <time>2012-05-06T17:28:25Z</time>
      </trkpt>
      <trkpt lat="49.02515" lon="1.14329">
        <ele>56.86</ele>
        <time>2012-05-06T17:28:29Z</time>
      </trkpt>
      <trkpt lat="49.02517" lon="1.14327">
        <ele>56.86</ele>
        <time>2012-05-06T17:28:30Z</time>
      </trkpt>
      <trkpt lat="49.0252" lon="1.14326">
        <ele>56.86</ele>
        <time>2012-05-06T17:28:31Z</time>
      </trkpt>
      <trkpt lat="49.02521" lon="1.14325">
        <ele>57.34</ele>
        <time>2012-05-06T17:28:32Z</time>
      </trkpt>
      <trkpt lat="49.02524" lon="1.14324">
        <ele>56.86</ele>
        <time>2012-05-06T17:28:33Z</time>
      </trkpt>
      <trkpt lat="49.02526" lon="1.14324">
        <ele>57.34</ele>
        <time>2012-05-06T17:28:34Z</time>
      </trkpt>
      <trkpt lat="49.02562" lon="1.14322">
        <ele>56.37</ele>
        <time>2012-05-06T17:28:41Z</time>
      </trkpt>
      <trkpt lat="49.0258" lon="1.14322">
        <ele>56.86</ele>
        <time>2012-05-06T17:28:45Z</time>
      </trkpt>
      <trkpt lat="49.02585" lon="1.14324">
        <ele>56.86</ele>
        <time>2012-05-06T17:28:46Z</time>
      </trkpt>
      <trkpt lat="49.02597" lon="1.14327">
        <ele>56.37</ele>
        <time>2012-05-06T17:28:49Z</time>
      </trkpt>
      <trkpt lat="49.02625" lon="1.1431">
        <ele>56.37</ele>
        <time>2012-05-06T17:28:57Z</time>
      </trkpt>
      <trkpt lat="49.02634" lon="1.14301">
        <ele>56.37</ele>
        <time>2012-05-06T17:29:00Z</time>
      </trkpt>
      <trkpt lat="49.02636" lon="1.14298">
        <ele>56.37</ele>
        <time>2012-05-06T17:29:01Z</time>
      </trkpt>
      <trkpt lat="49.02639" lon="1.14295">
        <ele>56.37</ele>
        <time>2012-05-06T17:29:02Z</time>
      </trkpt>
      <trkpt lat="49.02647" lon="1.14282">
        <ele>55.89</ele>
        <time>2012-05-06T17:29:05Z</time>
      </trkpt>
      <trkpt lat="49.02648" lon="1.14277">
        <ele>56.37</ele>
        <time>2012-05-06T17:29:06Z</time>
      </trkpt>
      <trkpt lat="49.02649" lon="1.14273">
        <ele>56.37</ele>
        <time>2012-05-06T17:29:07Z</time>
      </trkpt>
      <trkpt lat="49.02651" lon="1.14267">
        <ele>56.37</ele>
        <time>2012-05-06T17:29:08Z</time>
      </trkpt>
      <trkpt lat="49.02652" lon="1.14262">
        <ele>56.37</ele>
        <time>2012-05-06T17:29:09Z</time>
      </trkpt>
      <trkpt lat="49.02654" lon="1.14256">
        <ele>55.89</ele>
        <time>2012-05-06T17:29:10Z</time>
      </trkpt>
      <trkpt lat="49.02655" lon="1.1425">
        <ele>55.89</ele>
        <time>2012-05-06T17:29:11Z</time>
      </trkpt>
      <trkpt lat="49.02659" lon="1.14239">
        <ele>55.89</ele>
        <time>2012-05-06T17:29:13Z</time>
      </trkpt>
      <trkpt lat="49.02659" lon="1.1423">
        <ele>56.37</ele>
        <time>2012-05-06T17:29:14Z</time>
      </trkpt>
      <trkpt lat="49.0266" lon="1.14222">
        <ele>55.89</ele>
        <time>2012-05-06T17:29:15Z</time>
      </trkpt>
      <trkpt lat="49.02678" lon="1.14182">
        <ele>55.89</ele>
        <time>2012-05-06T17:29:24Z</time>
      </trkpt>
      <trkpt lat="49.02686" lon="1.14179">
        <ele>55.41</ele>
        <time>2012-05-06T17:29:27Z</time>
      </trkpt>
      <trkpt lat="49.02688" lon="1.1418">
        <ele>55.89</ele>
        <time>2012-05-06T17:29:28Z</time>
      </trkpt>
      <trkpt lat="49.0269" lon="1.14182">
        <ele>55.41</ele>
        <time>2012-05-06T17:29:29Z</time>
      </trkpt>
      <trkpt lat="49.02701" lon="1.14228">
        <ele>55.41</ele>
        <time>2012-05-06T17:29:41Z</time>
      </trkpt>
      <trkpt lat="49.02719" lon="1.14275">
        <ele>54.45</ele>
        <time>2012-05-06T17:29:51Z</time>
      </trkpt>
      <trkpt lat="49.02737" lon="1.14323">
        <ele>54.93</ele>
        <time>2012-05-06T17:30:01Z</time>
      </trkpt>
      <trkpt lat="49.02757" lon="1.14365">
        <ele>54.45</ele>
        <time>2012-05-06T17:30:12Z</time>
      </trkpt>
      <trkpt lat="49.02764" lon="1.14394">
        <ele>54.93</ele>
        <time>2012-05-06T17:30:24Z</time>
      </trkpt>
      <trkpt lat="49.02764" lon="1.14394">
        <ele>55.41</ele>
        <time>2012-05-06T17:30:28Z</time>
      </trkpt>
      <trkpt lat="49.02766" lon="1.14401">
        <ele>54.93</ele>
        <time>2012-05-06T17:30:30Z</time>
      </trkpt>
      <trkpt lat="49.02767" lon="1.14406">
        <ele>54.93</ele>
        <time>2012-05-06T17:30:31Z</time>
      </trkpt>
      <trkpt lat="49.02785" lon="1.14464">
        <ele>54.45</ele>
        <time>2012-05-06T17:30:42Z</time>
      </trkpt>
      <trkpt lat="49.02805" lon="1.14513">
        <ele>55.41</ele>
        <time>2012-05-06T17:30:53Z</time>
      </trkpt>
      <trkpt lat="49.02814" lon="1.14566">
        <ele>54.93</ele>
        <time>2012-05-06T17:31:05Z</time>
      </trkpt>
      <trkpt lat="49.02818" lon="1.14603">
        <ele>55.41</ele>
        <time>2012-05-06T17:31:14Z</time>
      </trkpt>
      <trkpt lat="49.02818" lon="1.14608">
        <ele>55.41</ele>
        <time>2012-05-06T17:31:15Z</time>
      </trkpt>
      <trkpt lat="49.02817" lon="1.14614">
        <ele>55.41</ele>
        <time>2012-05-06T17:31:16Z</time>
      </trkpt>
      <trkpt lat="49.02817" lon="1.1462">
        <ele>54.93</ele>
        <time>2012-05-06T17:31:17Z</time>
      </trkpt>
      <trkpt lat="49.02816" lon="1.14625">
        <ele>55.41</ele>
        <time>2012-05-06T17:31:18Z</time>
      </trkpt>
      <trkpt lat="49.02815" lon="1.14631">
        <ele>54.93</ele>
        <time>2012-05-06T17:31:19Z</time>
      </trkpt>
      <trkpt lat="49.02815" lon="1.14636">
        <ele>55.41</ele>
        <time>2012-05-06T17:31:20Z</time>
      </trkpt>
      <trkpt lat="49.02823" lon="1.14685">
        <ele>54.93</ele>
        <time>2012-05-06T17:31:30Z</time>
      </trkpt>
      <trkpt lat="49.0285" lon="1.14722">
        <ele>54.93</ele>
        <time>2012-05-06T17:31:40Z</time>
      </trkpt>
      <trkpt lat="49.0287" lon="1.14758">
        <ele>54.93</ele>
        <time>2012-05-06T17:31:50Z</time>
      </trkpt>
      <trkpt lat="49.02893" lon="1.14792">
        <ele>55.89</ele>
        <time>2012-05-06T17:32:01Z</time>
      </trkpt>
      <trkpt lat="49.0291" lon="1.14831">
        <ele>55.41</ele>
        <time>2012-05-06T17:32:11Z</time>
      </trkpt>
      <trkpt lat="49.02909" lon="1.14834">
        <ele>55.41</ele>
        <time>2012-05-06T17:32:12Z</time>
      </trkpt>
      <trkpt lat="49.02905" lon="1.1484">
        <ele>55.41</ele>
        <time>2012-05-06T17:32:13Z</time>
      </trkpt>
      <trkpt lat="49.02896" lon="1.14845">
        <ele>55.41</ele>
        <time>2012-05-06T17:32:14Z</time>
      </trkpt>
      <trkpt lat="49.0289" lon="1.14849">
        <ele>55.89</ele>
        <time>2012-05-06T17:32:15Z</time>
      </trkpt>
      <trkpt lat="49.02884" lon="1.14852">
        <ele>55.89</ele>
        <time>2012-05-06T17:32:16Z</time>
      </trkpt>
      <trkpt lat="49.02879" lon="1.14855">
        <ele>55.89</ele>
        <time>2012-05-06T17:32:17Z</time>
      </trkpt>
      <trkpt lat="49.02875" lon="1.14856">
        <ele>55.89</ele>
        <time>2012-05-06T17:32:18Z</time>
      </trkpt>
      <trkpt lat="49.02871" lon="1.14857">
        <ele>55.89</ele>
        <time>2012-05-06T17:32:19Z</time>
      </trkpt>
      <trkpt lat="49.02868" lon="1.14857">
        <ele>55.89</ele>
        <time>2012-05-06T17:32:20Z</time>
      </trkpt>
      <trkpt lat="49.02858" lon="1.14864">
        <ele>55.89</ele>
        <time>2012-05-06T17:32:23Z</time>
      </trkpt>
      <trkpt lat="49.02853" lon="1.14869">
        <ele>55.89</ele>
        <time>2012-05-06T17:32:24Z</time>
      </trkpt>
      <trkpt lat="49.0285" lon="1.14873">
        <ele>55.41</ele>
        <time>2012-05-06T17:32:25Z</time>
      </trkpt>
      <trkpt lat="49.02847" lon="1.14877">
        <ele>55.41</ele>
        <time>2012-05-06T17:32:26Z</time>
      </trkpt>
      <trkpt lat="49.02843" lon="1.14881">
        <ele>55.89</ele>
        <time>2012-05-06T17:32:27Z</time>
      </trkpt>
      <trkpt lat="49.02839" lon="1.14885">
        <ele>55.89</ele>
        <time>2012-05-06T17:32:28Z</time>
      </trkpt>
      <trkpt lat="49.02812" lon="1.14914">
        <ele>55.41</ele>
        <time>2012-05-06T17:32:36Z</time>
      </trkpt>
      <trkpt lat="49.02784" lon="1.14941">
        <ele>55.41</ele>
        <time>2012-05-06T17:32:44Z</time>
      </trkpt>
      <trkpt lat="49.02765" lon="1.14957">
        <ele>55.89</ele>
        <time>2012-05-06T17:32:52Z</time>
      </trkpt>
      <trkpt lat="49.02742" lon="1.1498">
        <ele>56.37</ele>
        <time>2012-05-06T17:32:59Z</time>
      </trkpt>
      <trkpt lat="49.02739" lon="1.14987">
        <ele>56.37</ele>
        <time>2012-05-06T17:33:00Z</time>
      </trkpt>
      <trkpt lat="49.02736" lon="1.14993">
        <ele>56.86</ele>
        <time>2012-05-06T17:33:01Z</time>
      </trkpt>
      <trkpt lat="49.02732" lon="1.14998">
        <ele>56.37</ele>
        <time>2012-05-06T17:33:02Z</time>
      </trkpt>
      <trkpt lat="49.02728" lon="1.15003">
        <ele>56.86</ele>
        <time>2012-05-06T17:33:03Z</time>
      </trkpt>
      <trkpt lat="49.02724" lon="1.15007">
        <ele>56.37</ele>
        <time>2012-05-06T17:33:04Z</time>
      </trkpt>
      <trkpt lat="49.0272" lon="1.15012">
        <ele>56.37</ele>
        <time>2012-05-06T17:33:05Z</time>
      </trkpt>
      <trkpt lat="49.02717" lon="1.15015">
        <ele>56.37</ele>
        <time>2012-05-06T17:33:06Z</time>
      </trkpt>
      <trkpt lat="49.02713" lon="1.1502">
        <ele>56.86</ele>
        <time>2012-05-06T17:33:07Z</time>
      </trkpt>
      <trkpt lat="49.0271" lon="1.15023">
        <ele>56.37</ele>
        <time>2012-05-06T17:33:08Z</time>
      </trkpt>
      <trkpt lat="49.02707" lon="1.15028">
        <ele>56.86</ele>
        <time>2012-05-06T17:33:09Z</time>
      </trkpt>
      <trkpt lat="49.02693" lon="1.15057">
        <ele>57.34</ele>
        <time>2012-05-06T17:33:16Z</time>
      </trkpt>
      <trkpt lat="49.02689" lon="1.1506">
        <ele>56.86</ele>
        <time>2012-05-06T17:33:17Z</time>
      </trkpt>
      <trkpt lat="49.02686" lon="1.15062">
        <ele>57.82</ele>
        <time>2012-05-06T17:33:18Z</time>
      </trkpt>
      <trkpt lat="49.02683" lon="1.15063">
        <ele>57.34</ele>
        <time>2012-05-06T17:33:19Z</time>
      </trkpt>
      <trkpt lat="49.02679" lon="1.15063">
        <ele>57.34</ele>
        <time>2012-05-06T17:33:20Z</time>
      </trkpt>
      <trkpt lat="49.02676" lon="1.15064">
        <ele>57.34</ele>
        <time>2012-05-06T17:33:21Z</time>
      </trkpt>
      <trkpt lat="49.02674" lon="1.15064">
        <ele>57.34</ele>
        <time>2012-05-06T17:33:22Z</time>
      </trkpt>
      <trkpt lat="49.02671" lon="1.15065">
        <ele>57.34</ele>
        <time>2012-05-06T17:33:23Z</time>
      </trkpt>
      <trkpt lat="49.02668" lon="1.15066">
        <ele>57.82</ele>
        <time>2012-05-06T17:33:24Z</time>
      </trkpt>
      <trkpt lat="49.02663" lon="1.15068">
        <ele>57.34</ele>
        <time>2012-05-06T17:33:25Z</time>
      </trkpt>
      <trkpt lat="49.02632" lon="1.1508">
        <ele>58.3</ele>
        <time>2012-05-06T17:33:35Z</time>
      </trkpt>
      <trkpt lat="49.02591" lon="1.15093">
        <ele>58.78</ele>
        <time>2012-05-06T17:33:47Z</time>
      </trkpt>
      <trkpt lat="49.0257" lon="1.15098">
        <ele>59.26</ele>
        <time>2012-05-06T17:33:55Z</time>
      </trkpt>
      <trkpt lat="49.02564" lon="1.15097">
        <ele>59.26</ele>
        <time>2012-05-06T17:33:57Z</time>
      </trkpt>
      <trkpt lat="49.02526" lon="1.15104">
        <ele>59.74</ele>
        <time>2012-05-06T17:34:06Z</time>
      </trkpt>
      <trkpt lat="49.02494" lon="1.1511">
        <ele>59.26</ele>
        <time>2012-05-06T17:34:18Z</time>
      </trkpt>
      <trkpt lat="49.02478" lon="1.15107">
        <ele>60.22</ele>
        <time>2012-05-06T17:34:26Z</time>
      </trkpt>
      <trkpt lat="49.02477" lon="1.15108">
        <ele>59.74</ele>
        <time>2012-05-06T17:34:27Z</time>
      </trkpt>
      <trkpt lat="49.02477" lon="1.1511">
        <ele>60.22</ele>
        <time>2012-05-06T17:34:28Z</time>
      </trkpt>
      <trkpt lat="49.02479" lon="1.15154">
        <ele>60.22</ele>
        <time>2012-05-06T17:34:39Z</time>
      </trkpt>
      <trkpt lat="49.02488" lon="1.15212">
        <ele>60.7</ele>
        <time>2012-05-06T17:34:49Z</time>
      </trkpt>
      <trkpt lat="49.02501" lon="1.1526">
        <ele>60.22</ele>
        <time>2012-05-06T17:34:59Z</time>
      </trkpt>
      <trkpt lat="49.02513" lon="1.15308">
        <ele>60.22</ele>
        <time>2012-05-06T17:35:11Z</time>
      </trkpt>
      <trkpt lat="49.02514" lon="1.15313">
        <ele>60.7</ele>
        <time>2012-05-06T17:35:12Z</time>
      </trkpt>
      <trkpt lat="49.02515" lon="1.15317">
        <ele>60.7</ele>
        <time>2012-05-06T17:35:13Z</time>
      </trkpt>
      <trkpt lat="49.02523" lon="1.15348">
        <ele>61.18</ele>
        <time>2012-05-06T17:35:21Z</time>
      </trkpt>
      <trkpt lat="49.02523" lon="1.15353">
        <ele>61.18</ele>
        <time>2012-05-06T17:35:22Z</time>
      </trkpt>
      <trkpt lat="49.02525" lon="1.15358">
        <ele>61.18</ele>
        <time>2012-05-06T17:35:23Z</time>
      </trkpt>
      <trkpt lat="49.02541" lon="1.15414">
        <ele>62.14</ele>
        <time>2012-05-06T17:35:32Z</time>
      </trkpt>
      <trkpt lat="49.02554" lon="1.15458">
        <ele>62.62</ele>
        <time>2012-05-06T17:35:41Z</time>
      </trkpt>
      <trkpt lat="49.02567" lon="1.15513">
        <ele>63.58</ele>
        <time>2012-05-06T17:35:52Z</time>
      </trkpt>
      <trkpt lat="49.02579" lon="1.15546">
        <ele>63.58</ele>
        <time>2012-05-06T17:36:01Z</time>
      </trkpt>
      <trkpt lat="49.02581" lon="1.15548">
        <ele>64.07</ele>
        <time>2012-05-06T17:36:02Z</time>
      </trkpt>
      <trkpt lat="49.02613" lon="1.15557">
        <ele>61.66</ele>
        <time>2012-05-06T17:36:14Z</time>
      </trkpt>
      <trkpt lat="49.02642" lon="1.1555">
        <ele>60.22</ele>
        <time>2012-05-06T17:36:24Z</time>
      </trkpt>
      <trkpt lat="49.02673" lon="1.15542">
        <ele>59.26</ele>
        <time>2012-05-06T17:36:34Z</time>
      </trkpt>
      <trkpt lat="49.02708" lon="1.15538">
        <ele>58.78</ele>
        <time>2012-05-06T17:36:45Z</time>
      </trkpt>
      <trkpt lat="49.02737" lon="1.15514">
        <ele>57.34</ele>
        <time>2012-05-06T17:36:57Z</time>
      </trkpt>
      <trkpt lat="49.02739" lon="1.15511">
        <ele>57.82</ele>
        <time>2012-05-06T17:36:58Z</time>
      </trkpt>
      <trkpt lat="49.02743" lon="1.15507">
        <ele>57.34</ele>
        <time>2012-05-06T17:36:59Z</time>
      </trkpt>
      <trkpt lat="49.02745" lon="1.15503">
        <ele>57.34</ele>
        <time>2012-05-06T17:37:00Z</time>
      </trkpt>
      <trkpt lat="49.02747" lon="1.15499">
        <ele>57.34</ele>
        <time>2012-05-06T17:37:01Z</time>
      </trkpt>
      <trkpt lat="49.02749" lon="1.15496">
        <ele>57.34</ele>
        <time>2012-05-06T17:37:02Z</time>
      </trkpt>
      <trkpt lat="49.02753" lon="1.15489">
        <ele>57.34</ele>
        <time>2012-05-06T17:37:04Z</time>
      </trkpt>
      <trkpt lat="49.02756" lon="1.15486">
        <ele>57.34</ele>
        <time>2012-05-06T17:37:05Z</time>
      </trkpt>
      <trkpt lat="49.02759" lon="1.15483">
        <ele>56.86</ele>
        <time>2012-05-06T17:37:06Z</time>
      </trkpt>
      <trkpt lat="49.0278" lon="1.15451">
        <ele>56.86</ele>
        <time>2012-05-06T17:37:15Z</time>
      </trkpt>
      <trkpt lat="49.02783" lon="1.1545">
        <ele>57.34</ele>
        <time>2012-05-06T17:37:16Z</time>
      </trkpt>
      <trkpt lat="49.02786" lon="1.15447">
        <ele>56.86</ele>
        <time>2012-05-06T17:37:17Z</time>
      </trkpt>
      <trkpt lat="49.02788" lon="1.15444">
        <ele>57.34</ele>
        <time>2012-05-06T17:37:18Z</time>
      </trkpt>
      <trkpt lat="49.0279" lon="1.15441">
        <ele>56.86</ele>
        <time>2012-05-06T17:37:19Z</time>
      </trkpt>
      <trkpt lat="49.02793" lon="1.15438">
        <ele>56.86</ele>
        <time>2012-05-06T17:37:20Z</time>
      </trkpt>
      <trkpt lat="49.02795" lon="1.15437">
        <ele>56.86</ele>
        <time>2012-05-06T17:37:21Z</time>
      </trkpt>
      <trkpt lat="49.02797" lon="1.15435">
        <ele>57.34</ele>
        <time>2012-05-06T17:37:22Z</time>
      </trkpt>
      <trkpt lat="49.02799" lon="1.15432">
        <ele>56.86</ele>
        <time>2012-05-06T17:37:23Z</time>
      </trkpt>
      <trkpt lat="49.028" lon="1.15429">
        <ele>56.86</ele>
        <time>2012-05-06T17:37:24Z</time>
      </trkpt>
      <trkpt lat="49.02802" lon="1.15425">
        <ele>57.34</ele>
        <time>2012-05-06T17:37:25Z</time>
      </trkpt>
      <trkpt lat="49.02822" lon="1.15395">
        <ele>56.86</ele>
        <time>2012-05-06T17:37:34Z</time>
      </trkpt>
      <trkpt lat="49.02831" lon="1.15382">
        <ele>56.86</ele>
        <time>2012-05-06T17:37:39Z</time>
      </trkpt>
      <trkpt lat="49.02831" lon="1.15378">
        <ele>56.37</ele>
        <time>2012-05-06T17:37:40Z</time>
      </trkpt>
      <trkpt lat="49.02831" lon="1.15374">
        <ele>56.37</ele>
        <time>2012-05-06T17:37:41Z</time>
      </trkpt>
      <trkpt lat="49.02828" lon="1.15367">
        <ele>56.86</ele>
        <time>2012-05-06T17:37:43Z</time>
      </trkpt>
      <trkpt lat="49.02838" lon="1.15366">
        <ele>56.37</ele>
        <time>2012-05-06T17:37:50Z</time>
      </trkpt>
      <trkpt lat="49.02852" lon="1.15335">
        <ele>56.37</ele>
        <time>2012-05-06T17:37:57Z</time>
      </trkpt>
      <trkpt lat="49.02856" lon="1.15329">
        <ele>56.86</ele>
        <time>2012-05-06T17:37:58Z</time>
      </trkpt>
      <trkpt lat="49.02861" lon="1.15323">
        <ele>56.86</ele>
        <time>2012-05-06T17:37:59Z</time>
      </trkpt>
      <trkpt lat="49.02866" lon="1.15318">
        <ele>56.86</ele>
        <time>2012-05-06T17:38:00Z</time>
      </trkpt>
      <trkpt lat="49.02868" lon="1.15314">
        <ele>56.37</ele>
        <time>2012-05-06T17:38:01Z</time>
      </trkpt>
      <trkpt lat="49.02874" lon="1.1531">
        <ele>56.86</ele>
        <time>2012-05-06T17:38:02Z</time>
      </trkpt>
      <trkpt lat="49.02881" lon="1.15304">
        <ele>56.86</ele>
        <time>2012-05-06T17:38:05Z</time>
      </trkpt>
      <trkpt lat="49.02906" lon="1.15298">
        <ele>56.37</ele>
        <time>2012-05-06T17:38:16Z</time>
      </trkpt>
      <trkpt lat="49.02943" lon="1.15306">
        <ele>55.89</ele>
        <time>2012-05-06T17:38:27Z</time>
      </trkpt>
      <trkpt lat="49.02963" lon="1.15315">
        <ele>55.41</ele>
        <time>2012-05-06T17:38:35Z</time>
      </trkpt>
      <trkpt lat="49.02964" lon="1.15317">
        <ele>55.41</ele>
        <time>2012-05-06T17:38:36Z</time>
      </trkpt>
      <trkpt lat="49.02966" lon="1.15321">
        <ele>55.41</ele>
        <time>2012-05-06T17:38:39Z</time>
      </trkpt>
      <trkpt lat="49.02967" lon="1.15322">
        <ele>55.89</ele>
        <time>2012-05-06T17:38:40Z</time>
      </trkpt>
      <trkpt lat="49.02971" lon="1.15326">
        <ele>54.93</ele>
        <time>2012-05-06T17:38:42Z</time>
      </trkpt>
      <trkpt lat="49.02974" lon="1.1533">
        <ele>55.41</ele>
        <time>2012-05-06T17:38:44Z</time>
      </trkpt>
      <trkpt lat="49.02974" lon="1.15332">
        <ele>55.41</ele>
        <time>2012-05-06T17:38:45Z</time>
      </trkpt>
      <trkpt lat="49.02973" lon="1.15333">
        <ele>55.89</ele>
        <time>2012-05-06T17:38:46Z</time>
      </trkpt>
      <trkpt lat="49.02978" lon="1.15335">
        <ele>54.93</ele>
        <time>2012-05-06T17:38:51Z</time>
      </trkpt>
      <trkpt lat="49.02979" lon="1.15335">
        <ele>54.93</ele>
        <time>2012-05-06T17:38:52Z</time>
      </trkpt>
      <trkpt lat="49.02985" lon="1.15334">
        <ele>54.93</ele>
        <time>2012-05-06T17:38:53Z</time>
      </trkpt>
      <trkpt lat="49.02988" lon="1.15334">
        <ele>54.93</ele>
        <time>2012-05-06T17:38:54Z</time>
      </trkpt>
      <trkpt lat="49.02992" lon="1.15333">
        <ele>55.41</ele>
        <time>2012-05-06T17:38:55Z</time>
      </trkpt>
      <trkpt lat="49.02994" lon="1.15331">
        <ele>54.93</ele>
        <time>2012-05-06T17:38:56Z</time>
      </trkpt>
      <trkpt lat="49.02996" lon="1.1533">
        <ele>55.41</ele>
        <time>2012-05-06T17:38:57Z</time>
      </trkpt>
      <trkpt lat="49.02998" lon="1.1533">
        <ele>55.89</ele>
        <time>2012-05-06T17:38:58Z</time>
      </trkpt>
      <trkpt lat="49.03001" lon="1.15329">
        <ele>55.41</ele>
        <time>2012-05-06T17:38:59Z</time>
      </trkpt>
      <trkpt lat="49.03004" lon="1.15329">
        <ele>55.41</ele>
        <time>2012-05-06T17:39:00Z</time>
      </trkpt>
      <trkpt lat="49.03045" lon="1.15344">
        <ele>54.93</ele>
        <time>2012-05-06T17:39:11Z</time>
      </trkpt>
      <trkpt lat="49.03098" lon="1.15368">
        <ele>54.93</ele>
        <time>2012-05-06T17:39:23Z</time>
      </trkpt>
      <trkpt lat="49.03137" lon="1.15406">
        <ele>54.93</ele>
        <time>2012-05-06T17:39:36Z</time>
      </trkpt>
      <trkpt lat="49.03164" lon="1.15428">
        <ele>53.97</ele>
        <time>2012-05-06T17:39:46Z</time>
      </trkpt>
      <trkpt lat="49.03204" lon="1.15473">
        <ele>53.97</ele>
        <time>2012-05-06T17:39:59Z</time>
      </trkpt>
      <trkpt lat="49.03238" lon="1.15508">
        <ele>54.93</ele>
        <time>2012-05-06T17:40:11Z</time>
      </trkpt>
      <trkpt lat="49.0326" lon="1.15533">
        <ele>54.93</ele>
        <time>2012-05-06T17:40:19Z</time>
      </trkpt>
      <trkpt lat="49.03263" lon="1.15535">
        <ele>54.93</ele>
        <time>2012-05-06T17:40:20Z</time>
      </trkpt>
      <trkpt lat="49.03281" lon="1.1556">
        <ele>54.93</ele>
        <time>2012-05-06T17:40:27Z</time>
      </trkpt>
      <trkpt lat="49.0328" lon="1.15565">
        <ele>54.45</ele>
        <time>2012-05-06T17:40:28Z</time>
      </trkpt>
      <trkpt lat="49.03277" lon="1.1557">
        <ele>54.93</ele>
        <time>2012-05-06T17:40:29Z</time>
      </trkpt>
      <trkpt lat="49.03275" lon="1.15575">
        <ele>54.93</ele>
        <time>2012-05-06T17:40:30Z</time>
      </trkpt>
      <trkpt lat="49.03272" lon="1.15581">
        <ele>54.93</ele>
        <time>2012-05-06T17:40:31Z</time>
      </trkpt>
      <trkpt lat="49.03249" lon="1.15626">
        <ele>54.45</ele>
        <time>2012-05-06T17:40:41Z</time>
      </trkpt>
      <trkpt lat="49.03231" lon="1.15662">
        <ele>54.93</ele>
        <time>2012-05-06T17:40:50Z</time>
      </trkpt>
      <trkpt lat="49.03223" lon="1.15688">
        <ele>54.93</ele>
        <time>2012-05-06T17:40:57Z</time>
      </trkpt>
      <trkpt lat="49.03223" lon="1.15693">
        <ele>54.93</ele>
        <time>2012-05-06T17:40:58Z</time>
      </trkpt>
      <trkpt lat="49.03223" lon="1.15697">
        <ele>54.93</ele>
        <time>2012-05-06T17:40:59Z</time>
      </trkpt>
      <trkpt lat="49.03223" lon="1.15701">
        <ele>54.93</ele>
        <time>2012-05-06T17:41:00Z</time>
      </trkpt>
      <trkpt lat="49.03224" lon="1.15705">
        <ele>54.93</ele>
        <time>2012-05-06T17:41:01Z</time>
      </trkpt>
      <trkpt lat="49.03226" lon="1.15723">
        <ele>54.45</ele>
        <time>2012-05-06T17:41:05Z</time>
      </trkpt>
      <trkpt lat="49.03218" lon="1.15765">
        <ele>54.45</ele>
        <time>2012-05-06T17:41:16Z</time>
      </trkpt>
      <trkpt lat="49.03197" lon="1.15822">
        <ele>54.93</ele>
        <time>2012-05-06T17:41:29Z</time>
      </trkpt>
      <trkpt lat="49.03191" lon="1.15852">
        <ele>55.41</ele>
        <time>2012-05-06T17:41:35Z</time>
      </trkpt>
      <trkpt lat="49.03191" lon="1.15855">
        <ele>55.41</ele>
        <time>2012-05-06T17:41:36Z</time>
      </trkpt>
      <trkpt lat="49.03193" lon="1.15859">
        <ele>55.89</ele>
        <time>2012-05-06T17:41:37Z</time>
      </trkpt>
      <trkpt lat="49.03196" lon="1.15863">
        <ele>55.41</ele>
        <time>2012-05-06T17:41:38Z</time>
      </trkpt>
      <trkpt lat="49.03198" lon="1.15867">
        <ele>55.41</ele>
        <time>2012-05-06T17:41:39Z</time>
      </trkpt>
      <trkpt lat="49.032" lon="1.1587">
        <ele>55.41</ele>
        <time>2012-05-06T17:41:40Z</time>
      </trkpt>
      <trkpt lat="49.03202" lon="1.15873">
        <ele>55.41</ele>
        <time>2012-05-06T17:41:41Z</time>
      </trkpt>
      <trkpt lat="49.03203" lon="1.15877">
        <ele>55.41</ele>
        <time>2012-05-06T17:41:42Z</time>
      </trkpt>
      <trkpt lat="49.03204" lon="1.15882">
        <ele>55.89</ele>
        <time>2012-05-06T17:41:43Z</time>
      </trkpt>
      <trkpt lat="49.03206" lon="1.15887">
        <ele>55.41</ele>
        <time>2012-05-06T17:41:44Z</time>
      </trkpt>
      <trkpt lat="49.03207" lon="1.15892">
        <ele>55.41</ele>
        <time>2012-05-06T17:41:45Z</time>
      </trkpt>
      <trkpt lat="49.03209" lon="1.15896">
        <ele>55.89</ele>
        <time>2012-05-06T17:41:46Z</time>
      </trkpt>
      <trkpt lat="49.0321" lon="1.15902">
        <ele>55.89</ele>
        <time>2012-05-06T17:41:47Z</time>
      </trkpt>
      <trkpt lat="49.03212" lon="1.15908">
        <ele>55.89</ele>
        <time>2012-05-06T17:41:48Z</time>
      </trkpt>
      <trkpt lat="49.03214" lon="1.15911">
        <ele>55.41</ele>
        <time>2012-05-06T17:41:49Z</time>
      </trkpt>
      <trkpt lat="49.03216" lon="1.15912">
        <ele>55.41</ele>
        <time>2012-05-06T17:41:50Z</time>
      </trkpt>
      <trkpt lat="49.03218" lon="1.15914">
        <ele>55.41</ele>
        <time>2012-05-06T17:41:51Z</time>
      </trkpt>
      <trkpt lat="49.03219" lon="1.15915">
        <ele>55.41</ele>
        <time>2012-05-06T17:41:52Z</time>
      </trkpt>
      <trkpt lat="49.0322" lon="1.15917">
        <ele>55.41</ele>
        <time>2012-05-06T17:41:53Z</time>
      </trkpt>
      <trkpt lat="49.03224" lon="1.15923">
        <ele>55.41</ele>
        <time>2012-05-06T17:41:59Z</time>
      </trkpt>
      <trkpt lat="49.03225" lon="1.15925">
        <ele>55.89</ele>
        <time>2012-05-06T17:42:00Z</time>
      </trkpt>
      <trkpt lat="49.03225" lon="1.15927">
        <ele>55.41</ele>
        <time>2012-05-06T17:42:01Z</time>
      </trkpt>
      <trkpt lat="49.03226" lon="1.15929">
        <ele>55.41</ele>
        <time>2012-05-06T17:42:02Z</time>
      </trkpt>
      <trkpt lat="49.03228" lon="1.15931">
        <ele>55.41</ele>
        <time>2012-05-06T17:42:03Z</time>
      </trkpt>
      <trkpt lat="49.0323" lon="1.15932">
        <ele>55.41</ele>
        <time>2012-05-06T17:42:04Z</time>
      </trkpt>
      <trkpt lat="49.03242" lon="1.1595">
        <ele>54.93</ele>
        <time>2012-05-06T17:42:17Z</time>
      </trkpt>
      <trkpt lat="49.03256" lon="1.15968">
        <ele>55.41</ele>
        <time>2012-05-06T17:42:30Z</time>
      </trkpt>
      <trkpt lat="49.03269" lon="1.15991">
        <ele>55.89</ele>
        <time>2012-05-06T17:42:45Z</time>
      </trkpt>
      <trkpt lat="49.0328" lon="1.16017">
        <ele>55.89</ele>
        <time>2012-05-06T17:43:01Z</time>
      </trkpt>
      <trkpt lat="49.03283" lon="1.16029">
        <ele>56.86</ele>
        <time>2012-05-06T17:43:07Z</time>
      </trkpt>
      <trkpt lat="49.03283" lon="1.16031">
        <ele>56.86</ele>
        <time>2012-05-06T17:43:08Z</time>
      </trkpt>
      <trkpt lat="49.03283" lon="1.16034">
        <ele>56.37</ele>
        <time>2012-05-06T17:43:09Z</time>
      </trkpt>
      <trkpt lat="49.03284" lon="1.16041">
        <ele>56.86</ele>
        <time>2012-05-06T17:43:12Z</time>
      </trkpt>
      <trkpt lat="49.03283" lon="1.16043">
        <ele>56.37</ele>
        <time>2012-05-06T17:43:13Z</time>
      </trkpt>
      <trkpt lat="49.03282" lon="1.16045">
        <ele>56.37</ele>
        <time>2012-05-06T17:43:14Z</time>
      </trkpt>
      <trkpt lat="49.03282" lon="1.16047">
        <ele>56.86</ele>
        <time>2012-05-06T17:43:15Z</time>
      </trkpt>
      <trkpt lat="49.03281" lon="1.16049">
        <ele>56.86</ele>
        <time>2012-05-06T17:43:16Z</time>
      </trkpt>
      <trkpt lat="49.03281" lon="1.16051">
        <ele>56.37</ele>
        <time>2012-05-06T17:43:17Z</time>
      </trkpt>
      <trkpt lat="49.03279" lon="1.16054">
        <ele>57.34</ele>
        <time>2012-05-06T17:43:19Z</time>
      </trkpt>
      <trkpt lat="49.03277" lon="1.16054">
        <ele>57.34</ele>
        <time>2012-05-06T17:43:20Z</time>
      </trkpt>
      <trkpt lat="49.03275" lon="1.16055">
        <ele>56.37</ele>
        <time>2012-05-06T17:43:21Z</time>
      </trkpt>
      <trkpt lat="49.03273" lon="1.16056">
        <ele>56.86</ele>
        <time>2012-05-06T17:43:22Z</time>
      </trkpt>
      <trkpt lat="49.03267" lon="1.16061">
        <ele>60.7</ele>
        <time>2012-05-06T17:43:26Z</time>
      </trkpt>
      <trkpt lat="49.03266" lon="1.16063">
        <ele>57.34</ele>
        <time>2012-05-06T17:43:27Z</time>
      </trkpt>
      <trkpt lat="49.03258" lon="1.1607">
        <ele>54.93</ele>
        <time>2012-05-06T17:43:33Z</time>
      </trkpt>
      <trkpt lat="49.03257" lon="1.16071">
        <ele>57.82</ele>
        <time>2012-05-06T17:43:34Z</time>
      </trkpt>
      <trkpt lat="49.03256" lon="1.16072">
        <ele>57.34</ele>
        <time>2012-05-06T17:43:35Z</time>
      </trkpt>
    </trkseg>
  </trk>
</gpx>